Data for 10/14/2010

Time Sea-Level Adjusted Pressure Absolute Pressure Temperature Relative Humidity Dew Point Precipitation   
(mb) (inHg) (mb) (inHg) (C) (F) (%) (C) (F) (mm) (in)
00:01 1028 30.36 857 25.31 5.1 41.2 61 -1.8 28.8 5.494 0.216
00:02 1028 30.36 857 25.31 5.3 41.5 61 -1.5 29.2 5.629 0.222
00:03 1028 30.36 857 25.31 5.3 41.5 62 -1.5 29.3 5.612 0.221
00:04 1028 30.36 857 25.31 5.2 41.3 62 -1.5 29.4 5.539 0.218
00:05 1028 30.36 857 25.31 5.1 41.2 62 -1.6 29.1 5.505 0.217
00:06 1028 30.36 857 25.31 5.2 41.3 61 -1.6 29.1 5.528 0.218
00:07 1028 30.36 857 25.31 5.2 41.4 61 -1.6 29 5.573 0.219
00:08 1028 30.36 857 25.31 5.3 41.5 62 -1.4 29.5 5.573 0.219
00:09 1028 30.36 857 25.31 5 41 64 -1.2 29.8 5.364 0.211
00:10 1028 30.36 857 25.31 4.6 40.2 66 -1.2 29.8 4.996 0.197
00:11 1028 30.36 857 25.31 4.3 39.7 67 -1.4 29.5 4.668 0.184
00:12 1028 30.36 857 25.31 4.1 39.4 66 -1.6 29.1 4.492 0.177
00:13 1028 30.36 857 25.31 4.2 39.6 65 -1.7 29 4.548 0.179
00:14 1028 30.36 857 25.31 4.3 39.8 65 -1.6 29 4.616 0.182
00:15 1028 30.36 857 25.31 4.3 39.8 66 -1.6 29.2 4.627 0.182
00:16 1028 30.36 857 25.31 4.2 39.6 66 -1.5 29.3 4.537 0.179
00:17 1028 30.36 857 25.31 4 39.2 68 -1.5 29.4 4.407 0.174
00:18 1028 30.36 857 25.31 3.8 38.8 68 -1.6 29.1 4.237 0.167
00:19 1028 30.36 857 25.31 3.7 38.7 68 -1.6 29.1 4.153 0.164
00:20 1028 30.36 857 25.31 3.7 38.6 69 -1.5 29.2 4.102 0.161
00:21 1028 30.36 857 25.31 3.5 38.4 69 -1.5 29.2 3.983 0.157
00:22 1028 30.36 857 25.31 3.5 38.2 69 -1.7 29 3.893 0.153
00:23 1028 30.36 857 25.31 3.5 38.4 69 -1.7 29 3.881 0.153
00:24 1028 30.36 857 25.31 3.5 38.3 69 -1.6 29.1 3.921 0.154
00:25 1028 30.36 857 25.31 3.4 38.2 71 -1.4 29.4 3.813 0.15
00:26 1028 30.36 857 25.31 3.2 37.7 72 -1.4 29.4 3.598 0.142
00:27 1028 30.36 857 25.31 3.1 37.5 72 -1.5 29.4 3.497 0.138
00:28 1028 30.36 857 25.31 3 37.4 72 -1.5 29.4 3.429 0.135
00:29 1028 30.36 857 25.31 2.9 37.3 73 -1.5 29.4 3.378 0.133
00:30 1028 30.36 857 25.31 2.9 37.2 73 -1.5 29.2 3.259 0.128
00:31 1028 30.36 857 25.31 2.9 37.2 72 -1.7 28.9 3.276 0.129
00:32 1028 30.36 857 25.31 3.1 37.5 71 -1.7 28.9 3.418 0.135
00:33 1028 30.36 857 25.31 3.2 37.7 71 -1.7 29 3.559 0.14
00:34 1028 30.36 857 25.31 3.2 37.8 71 -1.6 29.2 3.582 0.141
00:35 1028 30.36 857 25.31 3.1 37.7 71 -1.5 29.2 3.48 0.137
00:36 1028 30.36 857 25.31 3.1 37.6 71 -1.6 29.1 3.52 0.139
00:37 1028 30.36 857 25.31 3.2 37.7 71 -1.6 29.1 3.508 0.138
00:38 1028 30.36 857 25.31 3.2 37.8 71 -1.6 29.1 3.593 0.141
00:39 1028 30.36 857 25.31 3.2 37.8 71 -1.6 29.1 3.571 0.141
00:40 1028 30.36 857 25.31 3.2 37.7 71 -1.6 29.1 3.571 0.141
00:41 1028 30.36 857 25.31 3.1 37.7 71 -1.5 29.3 3.486 0.137
00:42 1028 30.36 857 25.31 3 37.4 73 -1.5 29.4 3.361 0.132
00:43 1028 30.36 857 25.31 2.9 37.1 73 -1.5 29.3 3.237 0.127
00:44 1028 30.36 857 25.31 2.7 36.9 73 -1.7 29 3.18 0.125
00:45 1028 30.36 857 25.31 2.8 37.1 72 -1.6 29.1 3.22 0.127
00:46 1028 30.36 857 25.31 2.8 37.1 73 -1.6 29.1 3.22 0.127
00:47 1028 30.36 857 25.31 2.8 37.1 73 -1.6 29.1 3.203 0.126
00:48 1028 30.36 857 25.31 2.8 37.1 73 -1.6 29.1 3.186 0.125
00:49 1028 30.36 857 25.31 2.8 37 73 -1.6 29.1 3.158 0.124
00:50 1028 30.36 857 25.31 2.8 37 73 -1.7 29 3.158 0.124
00:51 1028 30.36 857 25.31 2.8 37.1 72 -1.8 28.8 3.197 0.126
00:52 1028 30.36 857 25.31 3 37.4 71 -1.8 28.8 3.384 0.133
00:53 1028 30.36 857 25.31 3.1 37.6 70 -1.7 28.9 3.486 0.137
00:54 1028 30.36 857 25.31 3.2 37.7 71 -1.7 29 3.514 0.138
00:55 1028 30.36 857 25.31 3.1 37.6 72 -1.5 29.2 3.48 0.137
00:56 1028 30.36 857 25.31 2.8 37.1 73 -1.5 29.3 3.192 0.126
00:57 1028 30.36 857 25.31 2.6 36.6 74 -1.6 29.1 2.999 0.118
00:58 1028 30.36 857 25.31 2.5 36.5 74 -1.6 29.1 2.892 0.114
00:59 1028 30.36 857 25.31 2.5 36.5 74 -1.8 28.8 2.881 0.113
01:00 1028 30.36 857 25.31 2.6 36.7 73 -1.8 28.8 2.971 0.117
01:01 1028 30.36 857 25.31 2.7 36.9 72 -1.8 28.8 2.994 0.118
01:02 1028 30.36 857 25.31 2.7 36.9 72 -1.8 28.8 3.045 0.12
01:03 1028 30.36 857 25.31 2.7 36.9 72 -1.8 28.8 3.045 0.12
01:04 1028 30.36 857 25.31 2.7 36.9 72 -1.8 28.7 3.096 0.122
01:05 1028 30.36 857 25.31 2.8 37.1 71 -1.8 28.7 3.186 0.125
01:06 1028 30.36 857 25.31 2.9 37.2 71 -1.8 28.7 3.288 0.129
01:07 1028 30.36 857 25.31 3 37.4 71 -1.8 28.8 3.35 0.132
01:08 1028 30.36 857 25.31 3 37.4 71 -1.7 28.9 3.345 0.132
01:09 1028 30.36 857 25.31 2.9 37.1 71 -1.8 28.7 3.192 0.126
01:10 1028 30.36 857 25.31 2.8 37 72 -1.9 28.7 3.118 0.123
01:11 1028 30.36 857 25.31 2.7 36.9 72 -1.8 28.7 3.056 0.12
01:12 1028 30.36 857 25.31 2.7 36.8 72 -1.9 28.5 3.067 0.121
01:13 1028 30.36 857 25.31 2.7 36.9 72 -1.9 28.6 3.079 0.121
01:14 1028 30.36 857 25.31 2.8 37 71 -1.9 28.5 3.118 0.123
01:15 1028 30.36 857 25.31 2.8 37.1 71 -1.9 28.5 3.169 0.125
01:16 1028 30.36 857 25.31 2.9 37.2 71 -1.9 28.6 3.243 0.128
01:17 1028 30.36 857 25.31 3 37.3 70 -1.9 28.6 3.248 0.128
01:18 1028 30.36 857 25.31 3 37.3 70 -2 28.3 3.305 0.13
01:19 1028 30.36 857 25.31 3.2 37.7 69 -2 28.3 3.514 0.138
01:20 1028 30.36 857 25.31 3.4 38.1 69 -1.8 28.7 3.684 0.145
01:21 1028 30.36 857 25.31 3.4 38.1 68 -2 28.4 3.684 0.145
01:22 1028 30.36 857 25.31 3.5 38.4 67 -1.9 28.5 3.826 0.151
01:23 1028 30.36 857 25.31 3.7 38.6 66 -2 28.4 3.916 0.154
01:24 1028 30.36 857 25.31 3.8 38.8 66 -2.1 28.2 4.063 0.16
01:25 1028 30.36 857 25.31 4 39.1 64 -2.2 28.1 4.233 0.167
01:26 1028 30.36 857 25.31 4.2 39.5 64 -2.1 28.2 4.471 0.176
01:27 1028 30.36 857 25.31 4.3 39.8 62 -2.2 28 4.646 0.183
01:28 1028 30.36 857 25.31 4.5 40.1 62 -2.1 28.2 4.793 0.189
01:29 1028 30.36 857 25.31 4.5 40.2 62 -2 28.4 4.827 0.19
01:30 1028 30.36 857 25.31 4.4 39.9 63 -1.9 28.5 4.742 0.187
01:31 1028 30.36 857 25.31 4.3 39.7 64 -2 28.5 4.578 0.18
01:32 1028 30.36 857 25.31 4.1 39.4 65 -1.9 28.7 4.42 0.174
01:33 1028 30.36 857 25.31 3.9 38.9 66 -1.9 28.6 4.182 0.165
01:34 1028 30.36 857 25.31 3.6 38.5 67 -1.9 28.6 3.945 0.155
01:35 1028 30.36 857 25.31 3.4 38.1 68 -2 28.4 3.775 0.149
01:36 1028 30.36 857 25.31 3.2 37.8 68 -2.1 28.3 3.65 0.144
01:37 1028 30.36 857 25.31 3.1 37.6 69 -2 28.3 3.509 0.138
01:38 1028 30.36 857 25.31 3 37.4 69 -2.1 28.3 3.362 0.132
01:39 1028 30.36 857 25.31 2.9 37.2 70 -2.1 28.2 3.271 0.129
01:40 1028 30.36 857 25.31 2.8 37.1 70 -2.2 28.1 3.197 0.126
01:41 1028 30.36 857 25.31 2.9 37.2 69 -2.3 27.9 3.231 0.127
01:42 1028 30.36 857 25.31 3.1 37.5 68 -2.2 28 3.35 0.132
01:43 1028 30.36 857 25.31 3.2 37.8 68 -2.2 28 3.475 0.137
01:44 1028 30.36 857 25.31 3.3 37.9 68 -2.1 28.3 3.548 0.14
01:45 1028 30.36 857 25.31 3.1 37.5 69 -2.1 28.3 3.424 0.135
01:46 1028 30.36 857 25.31 2.9 37.3 70 -2 28.3 3.311 0.13
01:47 1028 30.36 857 25.31 2.8 37.1 70 -2.1 28.3 3.254 0.128
01:48 1028 30.36 857 25.31 2.7 36.9 70 -2.2 28.1 3.141 0.124
01:49 1028 30.36 857 25.31 2.7 36.8 70 -2.3 27.9 3.073 0.121
01:50 1028 30.36 857 25.31 2.8 37.1 68 -2.4 27.7 3.243 0.128
01:51 1028 30.36 857 25.31 3.1 37.6 67 -2.4 27.6 3.463 0.136
01:52 1028 30.36 857 25.31 3.3 38 66 -2.4 27.8 3.582 0.141
01:53 1028 30.36 857 25.31 3.4 38.2 66 -2.4 27.7 3.763 0.148
01:54 1028 30.36 857 25.31 3.7 38.6 65 -2.3 27.8 3.939 0.155
01:55 1028 30.36 857 25.31 3.8 38.8 64 -2.3 27.9 4.063 0.16
01:56 1028 30.36 857 25.31 3.9 39 64 -2.3 27.8 4.154 0.164
01:57 1028 30.36 857 25.31 4 39.2 64 -2.3 27.9 4.278 0.168
01:58 1028 30.36 857 25.31 4 39.3 63 -2.3 27.9 4.376 0.172
01:59 1028 30.36 857 25.31 4.1 39.4 63 -2.2 28.1 4.438 0.175
02:00 1028 30.36 857 25.31 4.2 39.5 63 -2.3 27.9 4.45 0.175
02:01 1028 30.36 857 25.31 4.2 39.6 63 -2.1 28.1 4.502 0.177
02:02 1028 30.36 857 25.31 4.2 39.6 63 -2.1 28.2 4.53 0.178
02:03 1028 30.36 857 25.31 4.2 39.6 63 -2.2 28.1 4.519 0.178
02:04 1028 30.36 857 25.31 4.3 39.7 62 -2.3 27.8 4.588 0.181
02:05 1028 30.36 857 25.31 4.4 39.9 61 -2.4 27.7 4.763 0.188
02:06 1028 30.36 857 25.31 4.6 40.3 61 -2.3 27.9 4.882 0.192
02:07 1028 30.36 857 25.31 4.7 40.5 61 -2.1 28.2 5.047 0.199
02:08 1028 30.36 857 25.31 4.8 40.6 61 -2.2 28.1 5.03 0.198
02:09 1028 30.36 857 25.31 4.7 40.5 60 -2.3 27.9 5.053 0.199
02:10 1028 30.36 857 25.31 4.7 40.5 60 -2.3 27.9 5.065 0.199
02:11 1028 30.36 857 25.31 4.8 40.6 60 -2.3 27.9 5.059 0.199
02:12 1028 30.36 857 25.31 4.7 40.5 60 -2.3 27.8 5.019 0.198
02:13 1028 30.36 857 25.31 4.7 40.5 60 -2.3 27.8 5.059 0.199
02:14 1028 30.36 857 25.31 4.8 40.6 60 -2.2 28 5.071 0.2
02:15 1028 30.36 857 25.31 4.9 40.9 59 -2.5 27.6 5.207 0.205
02:16 1028 30.36 857 25.31 5.2 41.4 57 -2.5 27.5 5.518 0.217
02:17 1028 30.36 857 25.31 5.5 41.9 56 -2.5 27.5 5.733 0.226
02:18 1028 30.36 857 25.31 5.7 42.2 57 -2.3 27.9 5.954 0.234
02:19 1028 30.36 857 25.31 5.8 42.4 56 -2.2 28.1 6.068 0.239
02:20 1028 30.36 857 25.31 5.8 42.4 55 -2.5 27.5 6.039 0.238
02:21 1028 30.36 857 25.31 5.9 42.6 55 -2.6 27.4 6.163 0.243
02:22 1028 30.36 857 25.31 6.1 43 54 -2.6 27.4 6.389 0.252
02:23 1028 30.36 857 25.31 6.3 43.3 54 -2.4 27.6 6.576 0.259
02:24 1028 30.36 857 25.31 6.3 43.4 53 -2.4 27.6 6.61 0.26
02:25 1028 30.36 857 25.31 6.3 43.3 55 -2 28.4 6.554 0.258
02:26 1028 30.36 857 25.31 6 42.8 56 -2 28.5 6.276 0.247
02:27 1028 30.36 857 25.31 5.7 42.3 57 -2.1 28.3 6.044 0.238
02:28 1028 30.36 857 25.31 5.4 41.8 60 -1.8 28.8 5.801 0.228
02:29 1028 30.36 857 25.31 5 41 60 -2.1 28.3 5.371 0.211
02:30 1028 30.36 857 25.31 4.8 40.7 60 -2.3 27.9 5.224 0.206
02:31 1028 30.36 857 25.31 4.8 40.7 61 -2.1 28.2 5.179 0.204
02:32 1028 30.36 857 25.31 4.7 40.5 62 -2 28.4 5.049 0.199
02:33 1028 30.36 857 25.31 4.4 39.9 63 -1.9 28.5 4.732 0.186
02:34 1028 30.36 857 25.31 4.1 39.3 65 -1.9 28.5 4.472 0.176
02:35 1028 30.36 857 25.31 3.8 38.8 66 -2 28.4 4.245 0.167
02:36 1028 30.36 857 25.31 3.6 38.5 66 -2.1 28.3 4.052 0.16
02:37 1028 30.36 857 25.31 3.5 38.3 66 -2.2 28 3.916 0.154
02:38 1028 30.36 857 25.31 3.5 38.4 66 -2.3 27.8 3.938 0.155
02:39 1028 30.36 857 25.31 3.5 38.3 67 -2.1 28.2 3.858 0.152
02:40 1028 30.36 857 25.31 3.3 37.9 68 -2.1 28.2 3.643 0.143
02:41 1028 30.36 857 25.31 3 37.4 69 -2.1 28.2 3.388 0.133
02:42 1028 30.36 857 25.31 2.7 36.9 70 -2.1 28.2 3.133 0.123
02:43 1028 30.36 857 25.31 2.6 36.6 71 -2.2 28 3.025 0.119
02:44 1028 30.36 857 25.31 2.6 36.7 71 -2.2 28.1 3.003 0.118
02:45 1028 30.36 857 25.31 2.6 36.6 71 -2.2 28 2.968 0.117
02:46 1028 30.36 857 25.31 2.5 36.6 71 -2.2 28.1 2.923 0.115
02:47 1028 30.36 857 25.31 2.5 36.5 71 -2.2 28 2.894 0.114
02:48 1028 30.36 857 25.31 2.5 36.5 71 -2.2 28.1 2.86 0.113
02:49 1028 30.36 857 25.31 2.5 36.4 71 -2.3 27.9 2.86 0.113
02:50 1028 30.36 857 25.31 2.6 36.7 70 -2.3 27.8 2.979 0.117
02:51 1028 30.36 857 25.31 2.7 36.8 70 -2.2 28 3.07 0.121
02:52 1028 30.36 857 25.31 2.5 36.5 71 -2.2 28 2.872 0.113
02:53 1028 30.36 857 25.31 2.4 36.4 71 -2.3 27.8 2.799 0.11
02:54 1028 30.36 857 25.31 2.5 36.4 71 -2.2 28.1 2.783 0.11
02:55 1028 30.36 857 25.31 2.3 36.1 73 -2.2 28.1 2.63 0.104
02:56 1028 30.36 857 25.31 2 35.7 74 -2.1 28.2 2.386 0.094
02:57 1028 30.36 857 25.31 1.8 35.3 75 -2.1 28.2 2.239 0.088
02:58 1028 30.36 857 25.31 1.6 34.9 76 -2.2 28.1 2.074 0.082
02:59 1028 30.36 857 25.31 1.6 34.8 76 -2.2 28.1 1.978 0.078
03:00 1028 30.36 857 25.31 1.5 34.7 76 -2.3 27.9 1.944 0.077
03:01 1028 30.36 857 25.31 1.7 35 75 -2.3 27.8 2.057 0.081
03:02 1028 30.36 857 25.31 1.9 35.5 73 -2.4 27.7 2.261 0.089
03:03 1028 30.36 857 25.31 2.2 36 72 -2.3 27.8 2.556 0.101
03:04 1028 30.36 857 25.31 2.3 36.2 72 -2.2 28.1 2.578 0.101
03:05 1028 30.36 857 25.31 2.2 35.9 72 -2.3 27.9 2.55 0.1
03:06 1028 30.36 857 25.31 2.3 36.2 72 -2.3 27.9 2.647 0.104
03:07 1028 30.36 857 25.31 2.4 36.4 71 -2.4 27.8 2.789 0.11
03:08 1028 30.36 857 25.31 2.6 36.7 70 -2.3 27.8 2.953 0.116
03:09 1028 30.36 857 25.31 2.7 36.9 70 -2.2 28.1 3.055 0.12
03:10 1028 30.36 857 25.31 2.7 36.9 70 -2.2 28 3.05 0.12
03:11 1028 30.36 857 25.31 2.7 36.8 70 -2.2 28.1 3.038 0.12
03:12 1028 30.36 857 25.31 2.6 36.7 71 -2.1 28.2 2.982 0.117
03:13 1028 30.36 857 25.31 2.5 36.4 72 -2.1 28.3 2.835 0.112
03:14 1028 30.36 857 25.31 2.3 36.2 73 -2.1 28.3 2.728 0.107
03:15 1028 30.36 857 25.31 2.2 36 74 -2 28.3 2.586 0.102
03:16 1028 30.36 857 25.31 2 35.6 75 -2.1 28.3 2.371 0.093
03:17 1028 30.36 857 25.31 1.7 35.1 76 -2.1 28.2 2.139 0.084
03:18 1028 30.36 857 25.31 1.5 34.7 77 -2.1 28.2 1.902 0.075
03:19 1028 30.36 857 25.31 1.3 34.3 78 -2.1 28.2 1.698 0.067
03:20 1028 30.36 857 25.31 1.2 34.2 79 -2.1 28.3 1.625 0.064
03:21 1028 30.36 857 25.31 1.3 34.3 78 -2.1 28.3 1.647 0.065
03:22 1028 30.36 857 25.31 1.5 34.6 77 -2.1 28.2 1.789 0.07
03:23 1028 30.36 857 25.31 1.6 34.9 76 -2.2 28.1 1.947 0.077
03:24 1028 30.36 857 25.31 1.7 35.1 75 -2.2 28 2.061 0.081
03:25 1028 30.36 857 25.31 1.8 35.3 74 -2.3 27.9 2.225 0.088
03:26 1028 30.36 857 25.31 2.1 35.9 72 -2.4 27.7 2.497 0.098
03:27 1028 30.36 857 25.31 2.6 36.6 70 -2.4 27.7 2.887 0.114
03:28 1028 30.36 857 25.31 2.8 37.1 69 -2.2 28 3.153 0.124
03:29 1028 30.36 857 25.31 2.8 37.1 70 -2.1 28.3 3.155 0.124
03:30 1028 30.36 857 25.31 2.6 36.6 72 -2 28.4 2.945 0.116
03:31 1028 30.36 857 25.31 2.3 36.2 73 -2 28.4 2.696 0.106
03:32 1028 30.36 857 25.31 2.1 35.8 74 -2 28.3 2.528 0.1
03:33 1028 30.36 857 25.31 2 35.6 74 -2.1 28.2 2.392 0.094
03:34 1028 30.36 857 25.31 2 35.5 74 -2.1 28.2 2.358 0.093
03:35 1028 30.36 857 25.31 2 35.6 74 -2.1 28.2 2.375 0.094
03:36 1028 30.36 857 25.31 2 35.6 74 -2.1 28.2 2.391 0.094
03:37 1028 30.36 857 25.31 2 35.6 74 -2.1 28.2 2.346 0.092
03:38 1028 30.36 857 25.31 1.9 35.4 75 -2.1 28.3 2.279 0.09
03:39 1028 30.36 857 25.31 1.9 35.3 75 -2.1 28.1 2.268 0.089
03:40 1028 30.36 857 25.31 2 35.6 74 -2.1 28.2 2.325 0.092
03:41 1028 30.36 857 25.31 2.1 35.8 74 -2.1 28.2 2.444 0.096
03:42 1028 30.36 857 25.31 2.2 35.9 73 -2.2 28.1 2.529 0.1
03:43 1028 30.36 857 25.31 2.3 36.1 73 -2.1 28.2 2.614 0.103
03:44 1028 30.36 857 25.31 2.2 36 73 -2.1 28.3 2.643 0.104
03:45 1028 30.36 857 25.31 2.1 35.8 74 -2.1 28.2 2.524 0.099
03:46 1028 30.36 857 25.31 2.1 35.7 74 -2.1 28.3 2.457 0.097
03:47 1028 30.36 857 25.31 1.9 35.5 75 -2.1 28.2 2.355 0.093
03:48 1028 30.36 857 25.31 1.9 35.4 75 -2.1 28.2 2.276 0.09
03:49 1028 30.36 857 25.31 1.8 35.3 75 -2.1 28.2 2.202 0.087
03:50 1028 30.36 857 25.31 1.7 35 76 -2.2 28.1 2.044 0.08
03:51 1028 30.36 857 25.31 1.6 34.9 75 -2.3 27.9 2.061 0.081
03:52 1028 30.36 857 25.31 1.7 35.1 75 -2.3 27.8 2.186 0.086
03:53 1028 30.36 857 25.31 1.9 35.4 74 -2.3 27.9 2.333 0.092
03:54 1028 30.36 857 25.31 2.1 35.8 72 -2.3 27.8 2.475 0.097
03:55 1028 30.36 857 25.31 2.3 36.1 71 -2.4 27.8 2.662 0.105
03:56 1028 30.36 857 25.31 2.4 36.3 71 -2.4 27.7 2.775 0.109
03:57 1028 30.36 857 25.31 2.5 36.5 70 -2.4 27.8 2.832 0.111
03:58 1028 30.36 857 25.31 2.6 36.8 70 -2.3 27.8 2.905 0.114
03:59 1028 30.36 857 25.31 2.7 36.9 69 -2.4 27.7 2.973 0.117
04:00 1028 30.36 857 25.31 2.8 37 69 -2.3 27.8 3.024 0.119
04:01 1028 30.36 857 25.31 2.9 37.2 68 -2.3 27.8 3.092 0.122
04:02 1028 30.36 857 25.31 3.1 37.5 67 -2.4 27.7 3.223 0.127
04:03 1028 30.36 857 25.31 3.1 37.6 67 -2.3 27.8 3.291 0.13
04:04 1028 30.36 857 25.31 3 37.4 68 -2.2 28 3.172 0.125
04:05 1028 30.36 857 25.31 2.9 37.2 69 -2.3 27.9 3.166 0.125
04:06 1028 30.36 857 25.31 2.8 37 69 -2.4 27.6 3.042 0.12
04:07 1028 30.36 857 25.31 2.5 36.5 71 -2.3 27.8 2.736 0.108
04:08 1028 30.36 857 25.31 2.2 35.9 72 -2.4 27.7 2.578 0.101
04:09 1028 30.36 857 25.31 2 35.7 73 -2.4 27.7 2.413 0.095
04:10 1028 30.36 857 25.31 1.9 35.4 74 -2.4 27.8 2.261 0.089
04:11 1028 30.36 857 25.31 1.8 35.3 74 -2.3 27.8 2.204 0.087
04:12 1028 30.36 857 25.31 1.8 35.3 74 -2.3 27.8 2.176 0.086
04:13 1028 30.36 857 25.31 1.9 35.3 74 -2.3 27.8 2.176 0.086
04:14 1028 30.36 857 25.31 1.8 35.2 74 -2.3 27.9 2.119 0.083
04:15 1028 30.36 857 25.31 1.8 35.2 74 -2.3 27.9 2.08 0.082
04:16 1028 30.36 857 25.31 1.7 35.1 75 -2.3 27.8 2.046 0.081
04:17 1028 30.36 857 25.31 1.6 34.9 75 -2.3 27.8 1.893 0.075
04:18 1028 30.36 857 25.31 1.5 34.8 75 -2.4 27.7 1.876 0.074
04:19 1028 30.36 857 25.31 1.5 34.7 76 -2.3 27.8 1.836 0.072
04:20 1028 30.36 857 25.31 1.6 34.8 75 -2.4 27.7 1.876 0.074
04:21 1027 30.33 857 25.31 1.6 34.9 75 -2.4 27.7 1.865 0.073
04:22 1028 30.36 857 25.31 1.7 35 74 -2.5 27.5 1.899 0.075
04:23 1028 30.36 857 25.31 1.5 34.7 74 -2.5 27.4 1.848 0.073
04:24 1028 30.36 857 25.31 1.2 34.2 75 -2.7 27.1 1.627 0.064
04:25 1028 30.36 857 25.31 0.9 33.7 76 -2.7 27.1 1.395 0.055
04:26 1027 30.33 857 25.31 0.7 33.2 78 -2.7 27.1 1.208 0.048
04:27 1027 30.33 857 25.31 0.6 33 79 -2.7 27.1 1.061 0.042
04:28 1027 30.33 857 25.31 0.5 32.9 79 -2.8 27 .942 0.037
04:29 1027 30.33 857 25.31 0.2 32.4 80 -2.9 26.8 .772 0.03
04:30 1027 30.33 857 25.31 0 32.1 80 -3 26.6 .585 0.023
04:31 1027 30.33 857 25.31 -0.2 31.7 82 -3 26.7 .393 0.015
04:32 1027 30.33 857 25.31 -0.4 31.3 83 -2.9 26.7 .183 0.007
04:33 1027 30.33 857 25.31 -0.5 31.1 83 -3.1 26.4 .025 0.001
04:34 1027 30.33 857 25.31 -0.6 30.9 84 -3 26.7 -.1 -0.004
04:35 1027 30.33 857 25.31 -0.6 30.9 85 -2.8 26.9 -.128 -0.005
04:36 1027 30.33 857 25.31 -0.5 31.1 85 -2.7 27.2 -.02 -0.001
04:37 1027 30.33 857 25.31 -0.3 31.5 84 -2.7 27.2 .127 0.005
04:38 1027 30.33 857 25.31 -0 31.9 83 -2.6 27.2 .325 0.013
04:39 1027 30.33 857 25.31 0.1 32.2 81 -2.7 27.2 .415 0.016
04:40 1027 30.33 857 25.31 0.1 32.3 81 -2.7 27.1 .466 0.018
04:41 1027 30.33 857 25.31 0.2 32.3 81 -2.7 27.1 .495 0.019
04:42 1027 30.33 857 25.31 0.1 32.2 81 -2.7 27.2 .432 0.017
04:43 1027 30.33 857 25.31 0.2 32.3 82 -2.6 27.3 .449 0.018
04:44 1027 30.33 857 25.31 0.3 32.6 81 -2.6 27.3 .602 0.024
04:45 1027 30.33 857 25.31 0.5 32.8 80 -2.5 27.5 .75 0.03
04:46 1028 30.36 857 25.31 0.7 33.3 79 -2.4 27.6 .982 0.039
04:47 1028 30.36 857 25.31 1 33.9 78 -2.4 27.6 1.276 0.05
04:48 1028 30.36 857 25.31 1.3 34.3 76 -2.5 27.5 1.48 0.058
04:49 1028 30.36 857 25.31 1.3 34.3 76 -2.5 27.4 1.485 0.058
04:50 1028 30.36 857 25.31 1.2 34.1 76 -2.5 27.4 1.389 0.055
04:51 1028 30.36 857 25.31 1.1 34 77 -2.5 27.6 1.338 0.053
04:52 1028 30.36 857 25.31 1.1 34 76 -2.6 27.4 1.378 0.054
04:53 1028 30.36 857 25.31 1.1 34 76 -2.6 27.3 1.327 0.052
04:54 1028 30.36 857 25.31 1 33.7 77 -2.6 27.3 1.27 0.05
04:55 1028 30.36 857 25.31 0.8 33.4 78 -2.6 27.3 1.163 0.046
04:56 1028 30.36 857 25.31 0.7 33.3 79 -2.6 27.4 1.078 0.042
04:57 1028 30.36 857 25.31 0.8 33.4 79 -2.5 27.4 1.095 0.043
04:58 1028 30.36 857 25.31 0.7 33.3 79 -2.6 27.4 1.078 0.042
04:59 1028 30.36 857 25.31 0.7 33.3 79 -2.6 27.3 1.033 0.041
05:00 1028 30.36 857 25.31 0.6 33.1 79 -2.7 27.2 .999 0.039
05:01 1028 30.36 857 25.31 0.4 32.7 80 -2.7 27.2 .868 0.034
05:02 1028 30.36 857 25.31 0.3 32.6 81 -2.6 27.3 .744 0.029
05:03 1027 30.33 857 25.31 0.2 32.4 81 -2.6 27.2 .653 0.026
05:04 1028 30.36 857 25.31 0.2 32.3 81 -2.7 27.1 .585 0.023
05:05 1028 30.36 857 25.31 -0 31.9 82 -2.8 27 .472 0.019
05:06 1028 30.36 857 25.31 -0.1 31.8 82 -2.7 27.1 .372 0.015
05:07 1028 30.36 857 25.31 -0.1 31.8 83 -2.7 27.1 .326 0.013
05:08 1028 30.36 857 25.31 0 32 82 -2.7 27.2 .338 0.013
05:09 1028 30.36 857 25.31 0 32 83 -2.6 27.3 .412 0.016
05:10 1028 30.36 857 25.31 0.1 32.2 82 -2.6 27.3 .463 0.018
05:11 1028 30.36 857 25.31 0 32.1 83 -2.6 27.4 .418 0.016
05:12 1028 30.36 857 25.31 -0.1 31.9 83 -2.6 27.3 .317 0.012
05:13 1028 30.36 857 25.31 -0.1 31.8 84 -2.6 27.4 .249 0.01
05:14 1028 30.36 857 25.31 -0.2 31.6 84 -2.6 27.4 .164 0.006
05:15 1028 30.36 857 25.31 -0.4 31.3 85 -2.6 27.3 .046 0.002
05:16 1028 30.36 857 25.31 -0.5 31.2 85 -2.7 27.2 -.039 -0.002
05:17 1028 30.36 857 25.31 -0.7 30.8 85 -2.9 26.8 -.209 -0.008
05:18 1028 30.36 857 25.31 -0.8 30.6 86 -2.8 27 -.395 -0.016
05:19 1028 30.36 857 25.31 -0.9 30.4 88 -2.7 27.2 -.457 -0.018
05:20 1028 30.36 857 25.31 -0.8 30.6 87 -2.7 27.2 -.389 -0.015
05:21 1028 30.36 857 25.31 -0.6 30.9 87 -2.5 27.4 -.287 -0.011
05:22 1028 30.36 857 25.31 -0.4 31.4 85 -2.5 27.4 .007 0
05:23 1028 30.36 857 25.31 -0.1 31.9 84 -2.5 27.6 .211 0.008
05:24 1028 30.36 857 25.31 0.3 32.5 82 -2.4 27.6 .517 0.02
05:25 1027 30.33 857 25.31 0.5 33 80 -2.5 27.5 .812 0.032
05:26 1027 30.33 857 25.31 0.8 33.4 79 -2.5 27.4 1.038 0.041
05:27 1027 30.33 857 25.31 0.8 33.5 78 -2.5 27.5 1.106 0.044
05:28 1027 30.33 857 25.31 0.8 33.4 79 -2.5 27.5 1.112 0.044
05:29 1028 30.36 857 25.31 0.9 33.6 78 -2.5 27.5 1.197 0.047
05:30 1027 30.33 857 25.31 1 33.7 77 -2.5 27.4 1.265 0.05
05:31 1027 30.33 857 25.31 0.9 33.6 78 -2.6 27.4 1.242 0.049
05:32 1028 30.36 857 25.31 0.8 33.5 78 -2.5 27.5 1.187 0.047
05:33 1028 30.36 857 25.31 0.8 33.5 78 -2.6 27.4 1.21 0.048
05:34 1028 30.36 857 25.31 0.9 33.6 78 -2.5 27.4 1.261 0.05
05:35 1028 30.36 857 25.31 0.9 33.6 78 -2.5 27.4 1.285 0.051
05:36 1028 30.36 857 25.31 0.9 33.5 78 -2.5 27.5 1.211 0.048
05:37 1028 30.36 857 25.31 0.8 33.5 78 -2.6 27.4 1.211 0.048
05:38 1028 30.36 857 25.31 0.9 33.5 78 -2.5 27.4 1.2 0.047
05:39 1028 30.36 857 25.31 0.9 33.5 78 -2.5 27.4 1.239 0.049
05:40 1028 30.36 857 25.31 0.9 33.6 78 -2.5 27.5 1.256 0.049
05:41 1028 30.36 857 25.31 0.9 33.5 78 -2.5 27.4 1.252 0.049
05:42 1028 30.36 857 25.31 0.8 33.5 78 -2.6 27.3 1.178 0.046
05:43 1028 30.36 857 25.31 0.8 33.4 78 -2.7 27.2 1.178 0.046
05:44 1028 30.36 857 25.31 0.9 33.6 77 -2.7 27.2 1.269 0.05
05:45 1028 30.36 857 25.31 1 33.7 77 -2.7 27.2 1.326 0.052
05:46 1028 30.36 857 25.31 1 33.7 77 -2.7 27.2 1.304 0.051
05:47 1028 30.36 857 25.31 0.8 33.4 78 -2.7 27.2 1.134 0.045
05:48 1028 30.36 857 25.31 0.5 33 80 -2.6 27.3 .913 0.036
05:49 1028 30.36 857 25.31 0.5 32.8 80 -2.6 27.4 .868 0.034
05:50 1028 30.36 857 25.31 0.7 33.2 78 -2.7 27.2 1.107 0.044
05:51 1028 30.36 857 25.31 1.1 33.9 76 -2.6 27.3 1.373 0.054
05:52 1028 30.36 857 25.31 1.4 34.6 74 -2.6 27.3 1.588 0.063
05:53 1028 30.36 857 25.31 1.7 35.1 73 -2.7 27.2 1.842 0.073
05:54 1028 30.36 857 25.31 2 35.7 71 -2.6 27.3 2.068 0.081
05:55 1028 30.36 857 25.31 2 35.7 71 -2.6 27.3 2.165 0.085
05:56 1028 30.36 857 25.31 2 35.6 72 -2.6 27.4 2.126 0.084
05:57 1028 30.36 857 25.31 1.9 35.4 72 -2.6 27.2 2.109 0.083
05:58 1028 30.36 857 25.31 1.7 35.1 72 -2.7 27.2 2.029 0.08
05:59 1028 30.36 857 25.31 1.7 35.1 72 -2.7 27.2 2.019 0.079
06:00 1028 30.36 857 25.31 2 35.5 71 -2.8 26.9 2.234 0.088
06:01 1028 30.36 857 25.31 1.9 35.4 72 -2.7 27.1 2.206 0.087
06:02 1028 30.36 857 25.31 1.7 35 72 -2.8 27 2.047 0.081
06:03 1028 30.36 857 25.31 1.5 34.7 73 -2.7 27.1 1.866 0.073
06:04 1028 30.36 857 25.31 1.3 34.4 75 -2.7 27.2 1.719 0.068
06:05 1028 30.36 857 25.31 1.5 34.8 74 -2.7 27.2 1.883 0.074
06:06 1028 30.36 857 25.31 1.8 35.2 72 -2.7 27.1 2.093 0.082
06:07 1028 30.36 857 25.31 2 35.7 71 -2.7 27.1 2.274 0.09
06:08 1028 30.36 857 25.31 2.4 36.3 68 -2.9 26.8 2.608 0.103
06:09 1028 30.36 857 25.31 2.8 37 67 -2.8 27 2.977 0.117
06:10 1028 30.36 857 25.31 2.9 37.2 66 -2.8 27 3.09 0.122
06:11 1028 30.36 857 25.31 2.8 37 66 -2.9 26.8 2.982 0.117
06:12 1028 30.36 857 25.31 2.3 36.1 69 -2.8 27 2.569 0.101
06:13 1028 30.36 857 25.31 1.8 35.3 72 -2.7 27.1 2.212 0.087
06:14 1028 30.36 857 25.31 1.5 34.8 72 -2.9 26.7 1.935 0.076
06:15 1028 30.36 857 25.31 1 33.9 75 -2.9 26.8 1.533 0.06
06:16 1028 30.36 857 25.31 0.5 32.9 77 -3 26.6 1.102 0.043
06:17 1028 30.36 857 25.31 0.2 32.4 79 -3.1 26.5 .767 0.03
06:18 1028 30.36 857 25.31 -0.1 31.9 80 -3.1 26.3 .467 0.018
06:19 1028 30.36 857 25.31 -0.3 31.4 82 -3.1 26.4 .224 0.009
06:20 1028 30.36 857 25.31 -0.5 31.1 83 -3.1 26.4 .037 0.001
06:21 1028 30.36 857 25.31 -0.6 30.9 83 -3.1 26.5 -.133 -0.005
06:22 1028 30.36 857 25.31 -0.7 30.8 84 -3.1 26.4 -.229 -0.009
06:23 1028 30.36 857 25.31 -0.8 30.6 84 -3.1 26.4 -.319 -0.013
06:24 1028 30.36 857 25.31 -0.8 30.6 85 -3 26.5 -.353 -0.014
06:25 1028 30.36 857 25.31 -0.7 30.7 85 -2.9 26.7 -.336 -0.013
06:26 1028 30.36 857 25.31 -0.6 30.9 84 -3 26.7 -.263 -0.01
06:27 1028 30.36 857 25.31 -0.6 30.8 84 -3 26.7 -.217 -0.009
06:28 1028 30.36 857 25.31 -0.6 31 84 -2.9 26.8 -.211 -0.008
06:29 1028 30.36 857 25.31 -0.5 31 84 -3 26.6 -.2 -0.008
06:30 1028 30.36 857 25.31 -0.6 30.9 84 -3 26.7 -.262 -0.01
06:31 1028 30.36 857 25.31 -0.6 30.8 84 -3 26.7 -.296 -0.012
06:32 1028 30.36 857 25.31 -0.6 30.9 85 -2.9 26.9 -.24 -0.009
06:33 1028 30.36 857 25.31 -0.5 31.1 84 -2.9 26.8 -.149 -0.006
06:34 1028 30.36 857 25.31 -0.4 31.3 83 -3 26.7 -.087 -0.003
06:35 1028 30.36 857 25.31 -0.3 31.4 83 -3 26.7 -.036 -0.001
06:36 1028 30.36 857 25.31 -0.3 31.4 83 -3 26.7 -.013 -0.001
06:37 1028 30.36 857 25.31 -0.3 31.5 82 -3 26.6 .078 0.003
06:38 1028 30.36 857 25.31 -0.2 31.6 81 -3.2 26.3 .078 0.003
06:39 1028 30.36 857 25.31 -0.3 31.5 81 -3.2 26.3 .049 0.002
06:40 1028 30.36 857 25.31 -0.3 31.4 82 -3.1 26.4 .021 0.001
06:41 1028 30.36 857 25.31 -0.3 31.4 82 -3 26.7 .044 0.002
06:42 1028 30.36 857 25.31 -0 31.9 81 -2.9 26.8 .31 0.012
06:43 1028 30.36 857 25.31 0.5 32.9 78 -2.9 26.8 .803 0.032
06:44 1028 30.36 857 25.31 1 33.8 75 -2.9 26.8 1.295 0.051
06:45 1028 30.36 857 25.31 1.4 34.5 73 -2.8 26.9 1.635 0.064
06:46 1028 30.36 857 25.31 1.5 34.8 73 -2.8 26.9 1.783 0.07
06:47 1028 30.36 857 25.31 1.4 34.5 74 -2.7 27.1 1.692 0.067
06:48 1028 30.36 857 25.31 1.4 34.5 75 -2.7 27.2 1.686 0.066
06:49 1028 30.36 857 25.31 1.6 34.8 73 -2.7 27.1 1.901 0.075
06:50 1028 30.36 857 25.31 1.7 35.1 73 -2.7 27.2 2.015 0.079
06:51 1028 30.36 857 25.31 1.7 35.1 73 -2.6 27.3 2.003 0.079
06:52 1028 30.36 857 25.31 1.7 35.1 73 -2.6 27.3 2.015 0.079
06:53 1028 30.36 857 25.31 1.6 34.9 74 -2.6 27.4 1.958 0.077
06:54 1028 30.36 857 25.31 1.7 35 73 -2.6 27.3 2.026 0.08
06:55 1028 30.36 857 25.31 1.9 35.4 72 -2.6 27.3 2.151 0.085
06:56 1028 30.36 857 25.31 2 35.6 72 -2.6 27.4 2.287 0.09
06:57 1028 30.36 857 25.31 1.9 35.5 72 -2.6 27.3 2.281 0.09
06:58 1028 30.36 857 25.31 1.9 35.4 72 -2.6 27.4 2.247 0.088
06:59 1028 30.36 857 25.31 1.8 35.2 73 -2.5 27.4 2.162 0.085
07:00 1028 30.36 857 25.31 1.7 35 73 -2.6 27.4 2.026 0.08
07:01 1028 30.36 857 25.31 1.6 34.8 74 -2.6 27.3 1.964 0.077
07:02 1028 30.36 857 25.31 1.4 34.6 74 -2.6 27.3 1.822 0.072
07:03 1028 30.36 857 25.31 1.3 34.4 75 -2.7 27.2 1.72 0.068
07:04 1028 30.36 857 25.31 1.3 34.3 76 -2.5 27.5 1.664 0.066
07:05 1028 30.36 857 25.31 1.4 34.5 75 -2.6 27.4 1.794 0.071
07:06 1028 30.36 857 25.31 1.6 34.9 74 -2.6 27.3 1.93 0.076
07:07 1028 30.36 857 25.31 1.7 35.1 73 -2.6 27.3 2.015 0.079
07:08 1028 30.36 857 25.31 1.9 35.3 72 -2.6 27.3 2.077 0.082
07:09 1028 30.36 857 25.31 1.9 35.4 72 -2.7 27.2 2.1 0.083
07:10 1028 30.36 857 25.31 1.8 35.2 72 -2.7 27.1 1.958 0.077
07:11 1028 30.36 857 25.31 1.4 34.5 74 -2.8 26.9 1.652 0.065
07:12 1028 30.36 857 25.31 1 33.9 75 -2.8 26.9 1.341 0.053
07:13 1028 30.36 857 25.31 0.7 33.3 77 -2.8 27 1.075 0.042
07:14 1028 30.36 857 25.31 0.6 33.1 78 -2.8 26.9 .973 0.038
07:15 1028 30.36 857 25.31 0.7 33.3 77 -2.8 26.9 1.063 0.042
07:16 1028 30.36 857 25.31 0.9 33.6 76 -2.9 26.8 1.177 0.046
07:17 1028 30.36 857 25.31 0.9 33.6 76 -2.9 26.8 1.143 0.045
07:18 1028 30.36 857 25.31 0.8 33.4 77 -2.8 26.9 1.052 0.041
07:19 1028 30.36 857 25.31 0.7 33.2 77 -2.8 26.9 1.024 0.04
07:20 1028 30.36 857 25.31 0.4 32.7 79 -2.9 26.8 .797 0.031
07:21 1028 30.36 857 25.31 0 32.1 81 -2.8 26.9 .48 0.019
07:22 1028 30.36 857 25.31 -0.2 31.7 82 -2.9 26.8 .282 0.011
07:23 1028 30.36 857 25.31 -0.2 31.6 83 -2.8 27 .191 0.008
07:24 1028 30.36 857 25.31 -0.2 31.7 83 -2.8 27 .225 0.009
07:25 1028 30.36 857 25.31 -0.1 31.8 82 -2.8 27 .293 0.012
07:26 1028 30.36 857 25.31 -0 31.9 82 -2.8 27 .367 0.014
07:27 1028 30.36 857 25.31 0.2 32.3 81 -2.8 27 .559 0.022
07:28 1028 30.36 857 25.31 0.3 32.6 80 -2.8 27 .695 0.027
07:29 1028 30.36 857 25.31 0.4 32.7 79 -2.8 27 .758 0.03
07:30 1028 30.36 857 25.31 0.5 32.9 79 -2.8 27 .877 0.035
07:31 1028 30.36 857 25.31 0.5 32.8 79 -2.8 27 .843 0.033
07:32 1028 30.36 857 25.31 0.4 32.7 79 -2.9 26.9 .775 0.031
07:33 1028 30.36 857 25.31 0.3 32.5 79 -2.9 26.7 .678 0.027
07:34 1028 30.36 857 25.31 0.1 32.2 80 -3 26.6 .469 0.018
07:35 1028 30.36 857 25.31 -0.1 31.9 80 -3.1 26.5 .344 0.014
07:36 1028 30.36 857 25.31 -0.2 31.6 81 -3.1 26.4 .18 0.007
07:37 1028 30.36 857 25.31 -0.4 31.4 81 -3.2 26.2 .044 0.002
07:38 1028 30.36 857 25.31 -0.6 31 82 -3.2 26.2 -.154 -0.006
07:39 1028 30.36 857 25.31 -0.8 30.6 84 -3.2 26.2 -.341 -0.013
07:40 1028 30.36 857 25.31 -1 30.2 84 -3.3 26.1 -.477 -0.019
07:41 1028 30.36 857 25.31 -1.2 29.9 86 -3.2 26.2 -.635 -0.025
07:42 1028 30.36 857 25.31 -1.2 29.8 86 -3.2 26.2 -.72 -0.028
07:43 1028 30.36 857 25.31 -1.2 29.8 87 -3.2 26.3 -.754 -0.03
07:44 1028 30.36 857 25.31 -1.2 29.8 86 -3.3 26.1 -.771 -0.03
07:45 1028 30.36 857 25.31 -1.2 29.9 87 -3.1 26.4 -.737 -0.029
07:46 1028 30.36 857 25.31 -1.1 30.1 86 -3.1 26.4 -.635 -0.025
07:47 1028 30.36 857 25.31 -0.9 30.4 84 -3.2 26.3 -.454 -0.018
07:48 1028 30.36 857 25.31 -0.7 30.7 83 -3.2 26.3 -.369 -0.015
07:49 1028 30.36 857 25.31 -0.7 30.8 84 -3.1 26.4 -.369 -0.015
07:50 1028 30.36 857 25.31 -0.4 31.2 83 -2.9 26.7 -.097 -0.004
07:51 1028 30.36 857 25.31 0 32.1 80 -3 26.6 .339 0.013
07:52 1028 30.36 857 25.31 0.3 32.6 79 -2.8 26.9 .565 0.022
07:53 1028 30.36 857 25.31 0.5 32.8 79 -2.8 27 .678 0.027
07:54 1028 30.36 857 25.31 0.5 33 79 -2.7 27.1 .803 0.032
07:55 1028 30.36 857 25.31 0.6 33 79 -2.7 27.2 .877 0.035
07:56 1028 30.36 857 25.31 0.6 33.1 78 -2.7 27.1 .928 0.037
07:57 1028 30.36 857 25.31 0.6 33.1 78 -2.7 27.1 .905 0.036
07:58 1028 30.36 857 25.31 0.5 33 79 -2.8 27 .86 0.034
07:59 1028 30.36 857 25.31 0.5 32.9 79 -2.7 27.1 .848 0.033
08:00 1028 30.36 857 25.31 0.5 32.9 79 -2.8 27 .831 0.033
08:01 1028 30.36 857 25.31 0.4 32.8 79 -2.7 27.1 .775 0.031
08:02 1028 30.36 857 25.31 0.4 32.7 80 -2.7 27.2 .729 0.029
08:03 1028 30.36 857 25.31 0.5 32.8 80 -2.6 27.2 .786 0.031
08:04 1028 30.36 857 25.31 0.5 33 79 -2.6 27.3 .877 0.035
08:05 1028 30.36 857 25.31 0.6 33.1 79 -2.6 27.3 .928 0.037
08:06 1028 30.36 857 25.31 0.7 33.2 79 -2.6 27.4 1.007 0.04
08:07 1028 30.36 857 25.31 0.7 33.3 79 -2.5 27.5 1.024 0.04
08:08 1028 30.36 857 25.31 0.7 33.3 79 -2.5 27.5 1.047 0.041
08:09 1028 30.36 857 25.31 0.7 33.3 79 -2.5 27.5 1.035 0.041
08:10 1028 30.36 857 25.31 0.7 33.2 79 -2.5 27.4 1.013 0.04
08:11 1028 30.36 857 25.31 0.7 33.3 79 -2.5 27.5 .996 0.039
08:12 1028 30.36 857 25.31 0.7 33.2 80 -2.5 27.6 1.052 0.041
08:13 1028 30.36 857 25.31 0.8 33.4 80 -2.4 27.7 1.08 0.043
08:14 1028 30.36 857 25.31 0.8 33.5 80 -2.3 27.8 1.126 0.044
08:15 1028 30.36 857 25.31 0.8 33.5 80 -2.3 27.8 1.199 0.047
08:16 1028 30.36 857 25.31 0.9 33.7 79 -2.3 27.9 1.233 0.049
08:17 1028 30.36 857 25.31 1 33.9 79 -2.2 28.1 1.369 0.054
08:18 1028 30.36 857 25.31 1.2 34.1 79 -2.1 28.2 1.46 0.057
08:19 1028 30.36 857 25.31 1.2 34.2 79 -2.1 28.3 1.505 0.059
08:20 1028 30.36 857 25.31 1.3 34.3 78 -2.1 28.2 1.607 0.063
08:21 1028 30.36 857 25.31 1.4 34.5 78 -2 28.3 1.692 0.067
08:22 1028 30.36 857 25.31 1.5 34.6 78 -2 28.3 1.766 0.07
08:23 1028 30.36 857 25.31 1.6 34.8 77 -2 28.5 1.851 0.073
08:24 1028 30.36 857 25.31 1.7 35 77 -2 28.4 1.97 0.078
08:25 1028 30.36 857 25.31 1.7 35.1 76 -2 28.4 2.06 0.081
08:26 1028 30.36 857 25.31 1.9 35.4 75 -2 28.4 2.202 0.087
08:27 1028 30.36 857 25.31 2.1 35.8 75 -1.8 28.8 2.36 0.093
08:28 1028 30.36 857 25.31 2.2 35.9 75 -1.7 28.9 2.428 0.096
08:29 1028 30.36 857 25.31 2.2 36 76 -1.6 29.1 2.502 0.099
08:30 1028 30.36 857 25.31 2.3 36.1 76 -1.6 29.2 2.547 0.1
08:31 1028 30.36 857 25.31 2.4 36.4 74 -1.7 28.9 2.661 0.105
08:32 1028 30.36 857 25.31 2.6 36.7 73 -1.8 28.8 2.87 0.113
08:33 1028 30.36 857 25.31 2.9 37.2 72 -1.6 29.1 3.125 0.123
08:34 1028 30.36 857 25.31 3.1 37.6 72 -1.5 29.3 3.363 0.132
08:35 1028 30.36 857 25.31 3.3 38 70 -1.6 29.1 3.55 0.14
08:36 1028 30.36 857 25.31 3.5 38.3 71 -1.3 29.7 3.703 0.146
08:37 1028 30.36 857 25.31 3.6 38.4 71 -1.1 29.9 3.803 0.15
08:38 1028 30.36 857 25.31 3.6 38.5 72 -1 30.2 3.848 0.151
08:39 1028 30.36 857 25.31 3.6 38.5 72 -1 30.2 3.894 0.153
08:40 1028 30.36 857 25.31 3.7 38.6 72 -0.8 30.5 3.966 0.156
08:41 1028 30.36 857 25.31 3.8 38.8 73 -0.7 30.7 3.994 0.157
08:42 1028 30.36 857 25.31 3.8 38.9 73 -0.6 30.9 4.119 0.162
08:43 1028 30.36 857 25.31 3.9 39.1 73 -0.5 31.1 4.22 0.166
08:44 1028 30.36 857 25.31 4.1 39.4 72 -0.4 31.2 4.401 0.173
08:45 1028 30.36 857 25.31 4.3 39.8 70 -0.6 31 4.582 0.18
08:46 1028 30.36 857 25.31 4.5 40.1 70 -0.5 31.1 4.78 0.188
08:47 1028 30.36 857 25.31 4.7 40.5 68 -0.7 30.8 4.944 0.195
08:48 1028 30.36 857 25.31 4.9 40.8 67 -0.6 30.9 5.13 0.202
08:49 1028 30.36 857 25.31 5.1 41.2 69 -0.2 31.7 5.355 0.211
08:50 1028 30.36 857 25.31 5.3 41.5 68 -0.1 31.9 5.582 0.22
08:51 1028 30.36 857 25.31 5.5 41.8 66 -0.3 31.5 5.808 0.229
08:52 1028 30.36 857 25.31 5.6 42.2 67 0 32.1 6.01 0.237
08:53 1028 30.36 857 25.31 5.8 42.4 66 -0.1 31.8 6.112 0.241
08:54 1028 30.36 857 25.31 5.9 42.7 66 0.1 32.2 6.253 0.246
08:55 1028 30.36 857 25.31 6.1 42.9 66 0.2 32.4 6.394 0.252
08:56 1028 30.36 857 25.31 6.2 43.1 64 -0 31.9 6.467 0.255
08:57 1028 30.36 857 25.31 6.2 43.2 66 0.4 32.6 6.529 0.257
08:58 1028 30.36 857 25.31 6.3 43.3 66 0.3 32.6 6.585 0.259
08:59 1028 30.36 857 25.31 6.3 43.3 64 0.1 32.1 6.568 0.259
09:00 1028 30.36 857 25.31 6.4 43.5 65 0.2 32.4 6.63 0.261
09:01 1028 30.36 857 25.31 6.4 43.5 65 0.4 32.6 6.726 0.265
09:02 1028 30.36 857 25.31 6.6 43.8 64 0.2 32.4 6.867 0.27
09:03 1028 30.36 857 25.31 6.7 44 64 0.5 32.9 6.958 0.274
09:04 1028 30.36 857 25.31 6.8 44.2 64 0.4 32.7 7.06 0.278
09:05 1028 30.36 857 25.31 6.9 44.4 63 0.4 32.7 7.12 0.28
09:06 1028 30.36 857 25.31 7 44.6 64 0.7 33.3 7.26 0.286
09:07 1028 30.36 857 25.31 7.1 44.9 63 0.6 33.1 7.39 0.291
09:08 1028 30.36 857 25.31 7.3 45.1 62 0.6 33.1 7.51 0.296
09:09 1028 30.36 857 25.31 7.5 45.4 61 0.4 32.7 7.66 0.302
09:10 1028 30.36 857 25.31 7.6 45.7 61 0.6 33.1 7.79 0.307
09:11 1028 30.36 857 25.31 7.7 45.9 62 0.8 33.5 7.89 0.311
09:12 1028 30.36 857 25.31 7.8 46.1 63 1.2 34.2 8.09 0.319
09:13 1028 30.36 857 25.31 8.1 46.5 62 1.2 34.2 8.22 0.324
09:14 1028 30.36 857 25.31 8.3 46.9 60 1.1 33.9 8.41 0.331
09:15 1028 30.36 857 25.31 8.3 47 60 1.1 34 8.56 0.337
09:16 1028 30.36 857 25.31 8.5 47.2 61 1.4 34.4 8.77 0.345
09:17 1028 30.36 857 25.31 8.6 47.5 63 1.9 35.4 8.83 0.348
09:18 1028 30.36 857 25.31 8.7 47.6 60 1.4 34.6 8.94 0.352
09:19 1028 30.36 857 25.31 8.7 47.7 59 1.2 34.2 9.04 0.356
09:20 1028 30.36 857 25.31 8.8 47.9 57 0.7 33.3 9.16 0.361
09:21 1028 30.36 857 25.31 8.9 48 56 0.7 33.2 9.3 0.366
09:22 1028 30.36 857 25.31 9.1 48.3 58 1.3 34.3 9.39 0.37
09:23 1028 30.36 857 25.31 9.2 48.6 54 0.4 32.7 9.53 0.375
09:24 1028 30.36 857 25.31 9.3 48.8 55 0.7 33.2 9.55 0.376
09:25 1028 30.36 857 25.31 9.5 49 56 1.1 34 9.49 0.374
09:26 1028 30.36 857 25.31 9.5 49.1 58 1.7 35.1 9.54 0.376
09:27 1028 30.36 857 25.31 9.6 49.4 53 0.7 33.2 9.6 0.378
09:28 1028 30.36 857 25.31 9.7 49.5 53 0.7 33.2 9.53 0.375
09:29 1028 30.36 857 25.31 9.7 49.5 53 0.6 33.1 9.62 0.379
09:30 1028 30.36 857 25.31 9.9 49.7 53 0.7 33.3 9.69 0.381
09:31 1028 30.36 857 25.31 9.9 49.9 52 0.6 33.1 9.86 0.388
09:32 1028 30.36 857 25.31 10 50.1 52 0.8 33.4 10.03 0.395
09:33 1028 30.36 857 25.31 10.2 50.4 51 0.7 33.2 10.22 0.402
09:34 1028 30.36 857 25.31 10.4 50.7 51 0.8 33.4 10.38 0.409
09:35 1028 30.36 857 25.31 10.6 51.1 54 1.6 34.9 10.54 0.415
09:36 1028 30.36 857 25.31 10.8 51.4 46 -0.3 31.4 10.66 0.42
09:37 1028 30.36 857 25.31 10.9 51.6 48 0.4 32.8 10.7 0.421
09:38 1028 30.36 857 25.31 11.1 52 48 0.7 33.3 10.85 0.427
09:39 1028 30.36 857 25.31 11.3 52.4 48 0.8 33.5 10.95 0.431
09:40 1028 30.36 857 25.31 11.4 52.5 48 0.8 33.5 11.11 0.437
09:41 1028 30.36 857 25.31 11.7 53 47 0.6 33.2 11.25 0.443
09:42 1028 30.36 857 25.31 11.8 53.2 44 -0.1 31.7 11.31 0.445
09:43 1028 30.36 857 25.31 12 53.5 46 0.7 33.2 11.39 0.448
09:44 1028 30.36 857 25.31 12.1 53.8 44 0.2 32.4 11.55 0.455
09:45 1028 30.36 857 25.31 12.2 54 44 0.3 32.6 11.6 0.457
09:46 1028 30.36 857 25.31 12.3 54.2 44 0.3 32.6 11.67 0.459
09:47 1028 30.36 857 25.31 12.4 54.3 43 0.2 32.4 11.68 0.46
09:48 1028 30.36 857 25.31 12.5 54.5 42 0.2 32.3 11.7 0.461
09:49 1028 30.36 857 25.31 12.7 54.9 43 0.4 32.8 11.78 0.464
09:50 1028 30.36 857 25.31 12.8 55.1 44 0.9 33.7 11.92 0.469
09:51 1028 30.36 857 25.31 12.7 54.8 43 0.3 32.6 11.87 0.467
09:52 1028 30.36 857 25.31 12.7 54.8 43 0.4 32.8 11.87 0.467
09:53 1028 30.36 857 25.31 12.7 54.9 46 1.5 34.6 11.88 0.468
09:54 1028 30.36 857 25.31 12.8 55 41 0 32 11.89 0.468
09:55 1028 30.36 857 25.31 12.8 55 38 -1.1 30 11.81 0.465
09:56 1028 30.36 857 25.31 12.7 54.8 39 -1 30.2 11.69 0.46
09:57 1028 30.36 857 25.31 12.6 54.7 38 -1.3 29.7 11.68 0.46
09:58 1028 30.36 857 25.31 12.6 54.6 40 -0.6 30.8 11.67 0.459
09:59 1028 30.36 857 25.31 12.5 54.5 43 0.3 32.5 11.68 0.46
10:00 1028 30.36 857 25.31 12.5 54.6 42 0.2 32.3 11.75 0.463
10:01 1028 30.36 857 25.31 12.6 54.7 43 0.3 32.5 11.77 0.463
10:02 1028 30.36 857 25.31 12.6 54.8 39 -0.9 30.4 11.87 0.467
10:03 1028 30.36 857 25.31 12.7 54.8 40 -0.4 31.3 11.8 0.465
10:04 1028 30.36 857 25.31 12.7 54.8 40 -0.6 31 11.83 0.466
10:05 1028 30.36 857 25.31 12.8 55 39 -0.6 30.9 11.91 0.469
10:06 1028 30.36 857 25.31 12.8 55 41 -0.2 31.7 11.97 0.471
10:07 1028 30.36 857 25.31 12.8 55.1 41 0 32 12.01 0.473
10:08 1028 30.36 857 25.31 12.9 55.2 37 -1.3 29.7 11.99 0.472
10:09 1028 30.36 857 25.31 12.9 55.3 38 -0.8 30.6 12.01 0.473
10:10 1028 30.36 857 25.31 13 55.4 39 -0.5 31 12.15 0.478
10:11 1028 30.36 857 25.31 13.2 55.8 41 0.4 32.7 12.31 0.485
10:12 1028 30.36 857 25.31 13.4 56.1 39 -0.2 31.7 12.45 0.49
10:13 1027 30.33 857 25.31 13.4 56.2 39 -0.2 31.6 12.36 0.487
10:14 1027 30.33 857 25.31 13.2 55.7 38 -0.8 30.6 12.27 0.483
10:15 1027 30.33 857 25.31 13.1 55.6 39 -0.5 31.2 12.34 0.486
10:16 1027 30.33 857 25.31 13.2 55.8 44 1.4 34.5 12.55 0.494
10:17 1027 30.33 857 25.31 13.3 56 37 -0.9 30.3 12.61 0.496
10:18 1027 30.33 857 25.31 13.3 56 39 -0.2 31.6 12.69 0.5
10:19 1027 30.33 857 25.31 13.4 56.1 38 -0.6 30.8 12.7 0.5
10:20 1027 30.33 857 25.31 13.4 56.1 40 0.3 32.6 12.78 0.503
10:21 1027 30.33 857 25.31 13.4 56.2 37 -0.7 30.7 12.77 0.503
10:22 1027 30.33 857 25.31 13.3 56 38 -0.7 30.8 12.69 0.5
10:23 1027 30.33 857 25.31 13.2 55.8 36 -1.3 29.7 12.74 0.502
10:24 1027 30.33 857 25.31 13.3 55.9 42 0.6 33.1 12.88 0.507
10:25 1027 30.33 857 25.31 13.5 56.2 37 -0.7 30.7 13.05 0.514
10:26 1027 30.33 857 25.31 13.5 56.3 41 0.7 33.2 13.11 0.516
10:27 1027 30.33 857 25.31 13.5 56.3 36 -1 30.2 13.16 0.518
10:28 1027 30.33 856 25.28 13.6 56.4 38 -0.3 31.5 13.14 0.517
10:29 1027 30.33 857 25.31 13.5 56.3 37 -1 30.2 13.05 0.514
10:30 1027 30.33 857 25.31 13.4 56.1 36 -1.4 29.5 12.96 0.51
10:31 1027 30.33 857 25.31 13.4 56.1 36 -1.3 29.7 13.02 0.513
10:32 1027 30.33 857 25.31 13.5 56.3 38 -0.4 31.3 13.19 0.519
10:33 1027 30.33 857 25.31 13.6 56.5 36 -1.3 29.7 13.21 0.52
10:34 1027 30.33 857 25.31 13.6 56.5 37 -0.7 30.8 13.16 0.518
10:35 1027 30.33 857 25.31 13.7 56.6 40 0.5 33 13.18 0.519
10:36 1027 30.33 857 25.31 13.7 56.7 33 -2.1 28.3 13.22 0.52
10:37 1027 30.33 857 25.31 13.7 56.7 36 -0.9 30.3 13.2 0.52
10:38 1027 30.33 857 25.31 13.7 56.7 35 -1.3 29.7 13.25 0.522
10:39 1027 30.33 856 25.28 13.7 56.7 34 -1.8 28.8 13.34 0.525
10:40 1027 30.33 856 25.28 13.8 56.9 37 -0.5 31.2 13.52 0.532
10:41 1027 30.33 857 25.31 13.9 57.1 33 -2 28.4 13.54 0.533
10:42 1027 30.33 856 25.28 13.8 56.9 39 0.1 32.2 13.38 0.527
10:43 1027 30.33 856 25.28 13.6 56.6 38 -0.4 31.3 13.24 0.521
10:44 1027 30.33 856 25.28 13.6 56.4 35 -1.6 29.1 13.19 0.519
10:45 1027 30.33 856 25.28 13.5 56.3 36 -1.3 29.6 13.16 0.518
10:46 1027 30.33 856 25.28 13.5 56.3 36 -1.2 29.9 13.2 0.52
10:47 1027 30.33 856 25.28 13.5 56.3 41 0.6 33.1 13.25 0.522
10:48 1027 30.33 856 25.28 13.5 56.4 38 -0.3 31.5 13.3 0.524
10:49 1027 30.33 856 25.28 13.5 56.3 36 -1.3 29.7 13.3 0.524
10:50 1027 30.33 856 25.28 13.5 56.3 37 -0.9 30.4 13.25 0.522
10:51 1027 30.33 856 25.28 13.4 56.2 40 0.3 32.6 13.17 0.519
10:52 1027 30.33 856 25.28 13.3 56 37 -1.1 30.1 13.11 0.516
10:53 1027 30.33 856 25.28 13.3 56 40 0.2 32.4 13.16 0.518
10:54 1027 30.33 856 25.28 13.3 56 40 0.1 32.2 13.06 0.514
10:55 1027 30.33 856 25.28 13.2 55.7 35 -1.9 28.6 12.99 0.511
10:56 1027 30.33 856 25.28 13.2 55.7 35 -1.9 28.6 12.99 0.511
10:57 1027 30.33 856 25.28 13.2 55.8 39 -0.5 31.1 13.12 0.517
10:58 1027 30.33 856 25.28 13.4 56.1 37 -1.1 30.1 13.29 0.523
10:59 1027 30.33 856 25.28 13.5 56.2 35 -1.7 29 13.25 0.522
11:00 1027 30.33 856 25.28 13.4 56.2 37 -0.8 30.6 13.23 0.521
11:01 1027 30.33 856 25.28 13.5 56.3 35 -1.7 28.9 13.34 0.525
11:02 1027 30.33 856 25.28 13.6 56.5 38 -0.5 31.1 13.58 0.535
11:03 1027 30.33 856 25.28 13.7 56.7 37 -0.8 30.5 13.6 0.535
11:04 1027 30.33 856 25.28 13.8 56.8 34 -1.8 28.8 13.59 0.535
11:05 1027 30.33 856 25.28 13.8 56.8 39 0.1 32.1 13.64 0.537
11:06 1027 30.33 856 25.28 13.8 56.9 34 -1.8 28.7 13.76 0.542
11:07 1027 30.33 856 25.28 13.9 57 36 -1 30.2 13.93 0.548
11:08 1027 30.33 856 25.28 14.1 57.4 35 -0.9 30.4 14.19 0.559
11:09 1027 30.33 856 25.28 14.2 57.6 34 -1.4 29.5 14.37 0.566
11:10 1027 30.33 856 25.28 14.3 57.8 38 0.3 32.6 14.36 0.565
11:11 1027 30.33 856 25.28 14.3 57.8 39 0.5 32.9 14.17 0.558
11:12 1027 30.33 856 25.28 14.2 57.6 34 -1.3 29.7 14.09 0.555
11:13 1027 30.33 856 25.28 14.2 57.6 36 -0.4 31.3 14.12 0.556
11:14 1027 30.33 856 25.28 14.3 57.7 33 -1.6 29.1 14.2 0.559
11:15 1027 30.33 856 25.28 14.2 57.6 35 -1.1 30.1 14.15 0.557
11:16 1027 30.33 856 25.28 14.2 57.6 33 -1.8 28.8 14.05 0.553
11:17 1027 30.33 856 25.28 14.2 57.5 33 -1.8 28.7 14.06 0.554
11:18 1027 30.33 856 25.28 14.2 57.5 32 -2.4 27.7 14.08 0.554
11:19 1027 30.33 856 25.28 14.1 57.5 33 -1.8 28.7 14.09 0.555
11:20 1027 30.33 856 25.28 14.2 57.5 35 -1 30.2 14.18 0.558
11:21 1027 30.33 856 25.28 14.2 57.5 32 -2.1 28.3 14.2 0.559
11:22 1027 30.33 856 25.28 14.2 57.5 34 -1.4 29.5 14.18 0.558
11:23 1027 30.33 856 25.28 14.3 57.7 37 -0.1 31.8 14.35 0.565
11:24 1027 30.33 856 25.28 14.5 58.1 35 -0.8 30.6 14.56 0.573
11:25 1027 30.33 856 25.28 14.5 58.1 33 -1.6 29.1 14.58 0.574
11:26 1027 30.33 856 25.28 14.5 58 33 -1.3 29.6 14.55 0.573
11:27 1027 30.33 856 25.28 14.6 58.3 38 0.6 33 14.73 0.58
11:28 1027 30.33 856 25.28 14.7 58.4 35 -0.5 31.2 14.84 0.584
11:29 1027 30.33 856 25.28 14.7 58.5 32 -1.8 28.8 14.91 0.587
11:30 1027 30.33 856 25.28 14.7 58.5 35 -0.4 31.3 14.79 0.582
11:31 1027 30.33 856 25.28 14.6 58.2 35 -0.7 30.7 14.69 0.578
11:32 1027 30.33 856 25.28 14.6 58.2 32 -1.8 28.8 14.7 0.579
11:33 1027 30.33 856 25.28 14.6 58.2 32 -2 28.4 14.71 0.579
11:34 1027 30.33 856 25.28 14.5 58.2 35 -0.5 31.1 14.63 0.576
11:35 1027 30.33 856 25.28 14.5 58.2 32 -1.9 28.6 14.65 0.577
11:36 1027 30.33 856 25.28 14.6 58.2 31 -2.1 28.2 14.72 0.58
11:37 1027 30.33 856 25.28 14.5 58.1 35 -0.8 30.6 14.7 0.579
11:38 1027 30.33 856 25.28 14.6 58.2 37 -0 31.9 14.76 0.581
11:39 1027 30.33 856 25.28 14.7 58.4 35 -0.7 30.8 14.85 0.585
11:40 1027 30.33 856 25.28 14.8 58.6 33 -1.2 29.9 14.88 0.586
11:41 1027 30.33 856 25.28 14.8 58.7 32 -1.8 28.7 14.92 0.587
11:42 1027 30.33 856 25.28 15 58.9 36 -0 31.9 14.94 0.588
11:43 1027 30.33 856 25.28 14.9 58.8 40 1.4 34.5 14.84 0.584
11:44 1027 30.33 856 25.28 14.9 58.7 32 -1.5 29.3 14.92 0.587
11:45 1027 30.33 856 25.28 14.9 58.8 33 -1 30.1 14.97 0.589
11:46 1027 30.33 856 25.28 14.8 58.6 32 -1.7 29 14.82 0.583
11:47 1027 30.33 856 25.28 14.7 58.5 32 -1.8 28.7 14.72 0.58
11:48 1027 30.33 856 25.28 14.6 58.2 30 -2.7 27.2 14.63 0.576
11:49 1027 30.33 856 25.28 14.6 58.2 32 -1.8 28.8 14.63 0.576
11:50 1027 30.33 856 25.28 14.6 58.2 33 -1.6 29.2 14.72 0.58
11:51 1027 30.33 856 25.28 14.6 58.3 33 -1.5 29.3 14.81 0.583
11:52 1027 30.33 856 25.28 14.7 58.5 32 -1.8 28.7 14.91 0.587
11:53 1027 30.33 856 25.28 14.8 58.7 31 -2.2 28.1 15.06 0.593
11:54 1027 30.33 856 25.28 14.9 58.9 33 -0.9 30.3 15.07 0.593
11:55 1027 30.33 856 25.28 15 59.1 32 -1.5 29.2 15.13 0.596
11:56 1027 30.33 856 25.28 15.1 59.2 31 -1.8 28.7 15.15 0.596
11:57 1027 30.33 856 25.28 15.2 59.3 31 -1.8 28.8 15.19 0.598
11:58 1026 30.3 856 25.28 15.3 59.5 31 -1.5 29.4 15.33 0.604
11:59 1026 30.3 856 25.28 15.3 59.6 35 -0 31.9 15.42 0.607
12:00 1026 30.3 856 25.28 15.4 59.8 31 -1.6 29.1 15.58 0.613
12:01 1026 30.3 856 25.28 15.5 59.8 33 -0.8 30.6 15.63 0.615
12:02 1026 30.3 856 25.28 15.5 59.8 34 -0.4 31.3 15.59 0.614
12:03 1026 30.3 856 25.28 15.5 60 32 -0.9 30.4 15.67 0.617
12:04 1026 30.3 856 25.28 15.7 60.2 31 -1.5 29.3 15.75 0.62
12:05 1026 30.3 856 25.28 15.8 60.4 32 -0.7 30.8 15.93 0.627
12:06 1026 30.3 856 25.28 15.8 60.4 30 -1.8 28.7 15.97 0.629
12:07 1026 30.3 856 25.28 15.8 60.4 29 -2 28.5 15.9 0.626
12:08 1026 30.3 855 25.25 15.7 60.3 31 -1.1 30 15.8 0.622
12:09 1026 30.3 855 25.25 15.7 60.3 35 0.3 32.6 15.79 0.622
12:10 1026 30.3 855 25.25 15.7 60.3 30 -1.6 29.2 15.8 0.622
12:11 1026 30.3 855 25.25 15.7 60.2 27 -3 26.7 15.76 0.62
12:12 1026 30.3 855 25.25 15.6 60.2 29 -2.1 28.3 15.66 0.617
12:13 1026 30.3 855 25.25 15.7 60.2 28 -2.6 27.3 15.76 0.62
12:14 1026 30.3 855 25.25 15.7 60.3 27 -3 26.6 15.83 0.623
12:15 1026 30.3 855 25.25 15.8 60.5 28 -2.3 27.8 15.98 0.629
12:16 1026 30.3 855 25.25 15.9 60.6 30 -1.5 29.3 16.01 0.63
12:17 1026 30.3 855 25.25 15.9 60.7 28 -2.4 27.7 16.05 0.632
12:18 1026 30.3 855 25.25 15.9 60.7 27 -2.9 26.9 16.11 0.634
12:19 1026 30.3 855 25.25 15.9 60.7 29 -2 28.4 16.24 0.639
12:20 1026 30.3 855 25.25 16 60.8 29 -1.7 29 16.16 0.636
12:21 1026 30.3 855 25.25 16.1 61 32 -0.5 31 16.28 0.641
12:22 1026 30.3 855 25.25 16.1 61.1 31 -1 30.2 16.27 0.641
12:23 1026 30.3 855 25.25 16.1 61 27 -2.6 27.4 16.25 0.64
12:24 1026 30.3 855 25.25 16.2 61.1 31 -1 30.2 16.24 0.639
12:25 1026 30.3 855 25.25 16.2 61.1 28 -2.2 28.1 16.32 0.643
12:26 1026 30.3 855 25.25 16.2 61.2 29 -1.9 28.7 16.31 0.642
12:27 1026 30.3 855 25.25 16.2 61.2 27 -2.7 27.1 16.35 0.644
12:28 1026 30.3 855 25.25 16.2 61.2 32 -0.3 31.4 16.41 0.646
12:29 1026 30.3 855 25.25 16.3 61.3 28 -2.4 27.8 16.48 0.649
12:30 1026 30.3 855 25.25 16.3 61.4 31 -0.6 30.9 16.57 0.652
12:31 1026 30.3 855 25.25 16.5 61.6 26 -2.8 26.9 16.69 0.657
12:32 1026 30.3 855 25.25 16.6 61.8 27 -2.6 27.4 16.67 0.656
12:33 1026 30.3 855 25.25 16.6 61.8 27 -2.6 27.3 16.61 0.654
12:34 1026 30.3 855 25.25 16.5 61.8 29 -1.5 29.3 16.58 0.653
12:35 1026 30.3 855 25.25 16.5 61.7 28 -1.7 28.9 16.54 0.651
12:36 1026 30.3 855 25.25 16.4 61.4 30 -1.3 29.7 16.39 0.645
12:37 1026 30.3 855 25.25 16.3 61.3 32 -0.3 31.4 16.4 0.646
12:38 1026 30.3 855 25.25 16.3 61.4 28 -2 28.5 16.43 0.647
12:39 1026 30.3 855 25.25 16.3 61.4 28 -2.3 27.8 16.38 0.645
12:40 1026 30.3 855 25.25 16.3 61.3 29 -1.9 28.6 16.35 0.644
12:41 1026 30.3 855 25.25 16.3 61.3 28 -2.1 28.2 16.37 0.644
12:42 1026 30.3 855 25.25 16.4 61.5 30 -1.1 30.1 16.5 0.65
12:43 1026 30.3 855 25.25 16.6 61.8 29 -1.6 29.2 16.74 0.659
12:44 1026 30.3 855 25.25 16.6 61.9 31 -0.6 31 16.75 0.659
12:45 1026 30.3 855 25.25 16.5 61.7 32 -0.1 31.8 16.64 0.655
12:46 1026 30.3 855 25.25 16.5 61.6 32 -0.2 31.7 16.55 0.652
12:47 1026 30.3 855 25.25 16.5 61.7 27 -2.4 27.7 16.66 0.656
12:48 1026 30.3 855 25.25 16.5 61.7 28 -2.1 28.1 16.66 0.656
12:49 1026 30.3 855 25.25 16.5 61.7 31 -0.8 30.6 16.74 0.659
12:50 1026 30.3 855 25.25 16.6 61.8 28 -1.9 28.5 16.83 0.663
12:51 1026 30.3 855 25.25 16.7 62.1 29 -1.3 29.6 16.94 0.667
12:52 1026 30.3 855 25.25 16.8 62.2 28 -1.9 28.6 17.05 0.671
12:53 1026 30.3 855 25.25 16.9 62.4 26 -2.4 27.6 17.04 0.671
12:54 1026 30.3 855 25.25 16.9 62.5 26 -2.5 27.5 17.06 0.672
12:55 1026 30.3 855 25.25 17 62.5 31 -0.3 31.4 17.08 0.672
12:56 1026 30.3 855 25.25 17 62.6 25 -2.9 26.7 17.1 0.673
12:57 1026 30.3 855 25.25 17.1 62.7 28 -1.7 28.9 17.11 0.674
12:58 1025 30.27 855 25.25 17.2 62.9 26 -2.1 28.1 17.14 0.675
12:59 1025 30.27 855 25.25 17.1 62.9 27 -1.9 28.6 17.16 0.676
13:00 1025 30.27 855 25.25 17.2 63 27 -2 28.4 17.28 0.68
13:01 1025 30.27 855 25.25 17.3 63.1 27 -1.9 28.7 17.37 0.684
13:02 1025 30.27 855 25.25 17.3 63.1 27 -2 28.4 17.46 0.687
13:03 1025 30.27 855 25.25 17.3 63.2 26 -2.5 27.5 17.46 0.687
13:04 1025 30.27 855 25.25 17.3 63.2 28 -1.4 29.5 17.39 0.685
13:05 1025 30.27 855 25.25 17.4 63.4 30 -0 32 17.53 0.69
13:06 1025 30.27 855 25.25 17.5 63.6 30 -0.3 31.4 17.69 0.696
13:07 1025 30.27 855 25.25 17.6 63.7 31 0.4 32.8 17.72 0.698
13:08 1025 30.27 854 25.22 17.7 63.8 29 -0.3 31.5 17.74 0.698
13:09 1025 30.27 854 25.22 17.7 63.9 30 0.2 32.4 17.78 0.7
13:10 1025 30.27 854 25.22 17.8 64 27 -1.4 29.6 17.8 0.701
13:11 1025 30.27 854 25.22 17.7 63.8 27 -1.3 29.7 17.68 0.696
13:12 1025 30.27 854 25.22 17.7 63.9 28 -1 30.2 17.8 0.701
13:13 1025 30.27 854 25.22 17.8 64.1 27 -1.3 29.6 17.96 0.707
13:14 1025 30.27 854 25.22 17.8 64.1 28 -0.6 30.8 17.99 0.708
13:15 1025 30.27 854 25.22 17.8 64 28 -0.9 30.3 17.86 0.703
13:16 1025 30.27 854 25.22 17.7 63.8 25 -2.3 27.9 17.79 0.7
13:17 1025 30.27 854 25.22 17.7 63.8 24 -2.8 27 17.73 0.698
13:18 1025 30.27 854 25.22 17.7 63.8 26 -1.8 28.8 17.79 0.7
13:19 1025 30.27 854 25.22 17.7 63.9 29 -0.6 30.9 17.87 0.704
13:20 1025 30.27 854 25.22 17.9 64.1 25 -2.2 28 17.9 0.705
13:21 1025 30.27 854 25.22 17.9 64.2 27 -1.3 29.7 17.83 0.702
13:22 1025 30.27 854 25.22 17.8 64 25 -2.2 28.1 17.79 0.7
13:23 1025 30.27 854 25.22 17.8 64 27 -1.2 29.8 17.75 0.699
13:24 1025 30.27 854 25.22 17.8 64 28 -0.8 30.5 17.86 0.703
13:25 1025 30.27 854 25.22 17.7 63.9 28 -1.1 30.1 17.83 0.702
13:26 1025 30.27 854 25.22 17.8 64 27 -1.4 29.5 17.98 0.708
13:27 1025 30.27 854 25.22 17.9 64.2 25 -2 28.4 18.14 0.714
13:28 1025 30.27 854 25.22 18 64.5 29 -0.1 31.8 18.31 0.721
13:29 1025 30.27 854 25.22 18.3 64.9 27 -0.9 30.4 18.56 0.731
13:30 1025 30.27 854 25.22 18.4 65.1 27 -1 30.2 18.57 0.731
13:31 1025 30.27 854 25.22 18.4 65.1 28 -0.5 31.1 18.6 0.732
13:32 1025 30.27 854 25.22 18.4 65 24 -2.2 28.1 18.56 0.731
13:33 1025 30.27 854 25.22 18.3 64.9 27 -1.2 29.9 18.6 0.732
13:34 1025 30.27 854 25.22 18.3 65 27 -0.9 30.3 18.69 0.736
13:35 1025 30.27 854 25.22 18.5 65.2 24 -2.1 28.2 18.73 0.737
13:36 1025 30.27 854 25.22 18.5 65.2 25 -1.6 29.1 18.59 0.732
13:37 1025 30.27 854 25.22 18.4 65.1 27 -1 30.3 18.5 0.728
13:38 1025 30.27 854 25.22 18.4 65 27 -1.1 30.1 18.53 0.73
13:39 1025 30.27 854 25.22 18.4 65.2 24 -2.2 28 18.62 0.733
13:40 1025 30.27 854 25.22 18.5 65.3 24 -2.2 28 18.69 0.736
13:41 1025 30.27 854 25.22 18.6 65.6 26 -1 30.2 18.73 0.737
13:42 1025 30.27 854 25.22 18.8 65.8 24 -2.2 28 18.8 0.74
13:43 1025 30.27 854 25.22 18.8 65.8 23 -2.9 26.8 18.73 0.737
13:44 1025 30.27 854 25.22 18.6 65.6 25 -1.6 29.2 18.66 0.735
13:45 1025 30.27 854 25.22 18.7 65.6 23 -2.8 26.9 18.74 0.738
13:46 1025 30.27 854 25.22 18.8 65.8 27 -0.6 30.8 18.85 0.742
13:47 1025 30.27 854 25.22 18.9 66 25 -1.3 29.6 19 0.748
13:48 1025 30.27 854 25.22 18.9 66 25 -1.6 29.2 18.98 0.747
13:49 1025 30.27 854 25.22 18.9 66 24 -1.9 28.5 18.96 0.746
13:50 1025 30.27 854 25.22 18.8 65.9 26 -0.8 30.5 18.83 0.741
13:51 1025 30.27 854 25.22 18.7 65.7 28 -0.1 31.8 18.75 0.738
13:52 1025 30.27 854 25.22 18.7 65.6 28 0.2 32.3 18.74 0.738
13:53 1025 30.27 854 25.22 18.7 65.7 27 -0.6 30.9 18.9 0.744
13:54 1025 30.27 854 25.22 18.9 66 28 -0 32 19.11 0.752
13:55 1025 30.27 854 25.22 19 66.3 30 1.4 34.5 19.16 0.754
13:56 1025 30.27 854 25.22 19.1 66.4 25 -1.1 30 19.25 0.758
13:57 1025 30.27 854 25.22 19.2 66.5 24 -1.7 29 19.27 0.759
13:58 1025 30.27 854 25.22 19.1 66.4 26 -0.8 30.6 19.22 0.757
13:59 1025 30.27 854 25.22 19.1 66.4 26 -0.8 30.5 19.26 0.758
14:00 1025 30.27 854 25.22 19.2 66.5 26 -0.6 30.9 19.34 0.761
14:01 1025 30.27 854 25.22 19.3 66.7 24 -1.5 29.3 19.37 0.763
14:02 1025 30.27 854 25.22 19.3 66.8 27 -0.2 31.6 19.29 0.759
14:03 1025 30.27 854 25.22 19.3 66.7 26 -0.3 31.5 19.21 0.756
14:04 1025 30.27 854 25.22 19.2 66.6 24 -1.5 29.3 19.14 0.754
14:05 1024 30.24 854 25.22 19.2 66.6 28 0.3 32.5 19.24 0.757
14:06 1024 30.24 854 25.22 19.3 66.7 27 0 32.1 19.31 0.76
14:07 1024 30.24 854 25.22 19.2 66.6 24 -2 28.4 19.16 0.754
14:08 1024 30.24 854 25.22 19.1 66.4 25 -1.3 29.6 19.09 0.752
14:09 1024 30.24 854 25.22 19 66.3 24 -2 28.3 19.07 0.751
14:10 1024 30.24 854 25.22 19 66.2 23 -2.5 27.5 19.11 0.752
14:11 1024 30.24 854 25.22 19.1 66.4 30 1.4 34.6 19.26 0.758
14:12 1024 30.24 854 25.22 19.3 66.8 28 0.4 32.7 19.52 0.769
14:13 1024 30.24 853 25.19 19.6 67.2 27 0.2 32.4 19.72 0.776
14:14 1024 30.24 853 25.19 19.7 67.4 23 -2.1 28.2 19.79 0.779
14:15 1024 30.24 853 25.19 19.6 67.4 23 -1.6 29 19.7 0.776
14:16 1024 30.24 853 25.19 19.7 67.4 27 0.3 32.5 19.82 0.78
14:17 1024 30.24 853 25.19 19.7 67.5 23 -2 28.4 19.78 0.779
14:18 1024 30.24 853 25.19 19.7 67.5 23 -1.9 28.6 19.79 0.779
14:19 1024 30.24 853 25.19 19.7 67.4 23 -1.8 28.8 19.72 0.776
14:20 1024 30.24 853 25.19 19.6 67.2 21 -3.1 26.4 19.68 0.775
14:21 1024 30.24 853 25.19 19.6 67.3 24 -1.4 29.5 19.78 0.779
14:22 1024 30.24 853 25.19 19.7 67.5 26 -0.1 31.8 19.94 0.785
14:23 1024 30.24 853 25.19 19.9 67.7 24 -1.2 29.8 20.06 0.79
14:24 1024 30.24 853 25.19 19.9 67.9 22 -2.2 28 20.18 0.794
14:25 1024 30.24 853 25.19 20.1 68.2 22 -2.4 27.8 20.33 0.8
14:26 1024 30.24 853 25.19 20.1 68.2 23 -1.3 29.7 20.4 0.803
14:27 1024 30.24 853 25.19 20.3 68.5 22 -1.7 28.9 20.48 0.806
14:28 1024 30.24 853 25.19 20.4 68.8 22 -1.6 29.1 20.6 0.811
14:29 1024 30.24 853 25.19 20.5 68.8 21 -2.2 28 20.65 0.813
14:30 1024 30.24 853 25.19 20.6 69 25 0.1 32.2 20.65 0.813
14:31 1024 30.24 853 25.19 20.7 69.2 22 -1.9 28.5 20.7 0.815
14:32 1024 30.24 853 25.19 20.8 69.4 25 0.2 32.4 20.72 0.816
14:33 1024 30.24 853 25.19 20.9 69.6 25 0.2 32.4 20.89 0.822
14:34 1024 30.24 853 25.19 21 69.9 24 0.1 32.2 21.12 0.831
14:35 1024 30.24 853 25.19 21.1 70 22 -1.3 29.7 21.14 0.832
14:36 1024 30.24 853 25.19 21 69.9 21 -1.8 28.7 20.93 0.824
14:37 1024 30.24 853 25.19 20.9 69.7 23 -0.8 30.6 20.89 0.822
14:38 1024 30.24 853 25.19 21 69.8 21 -1.7 29 21.06 0.829
14:39 1024 30.24 853 25.19 21.2 70.2 20 -2.2 28.1 21.21 0.835
14:40 1024 30.24 853 25.19 21.3 70.4 21 -1.8 28.8 21.21 0.835
14:41 1024 30.24 853 25.19 21.2 70.1 23 -0.6 30.9 20.99 0.826
14:42 1024 30.24 853 25.19 21 69.8 22 -1.5 29.2 20.99 0.826
14:43 1024 30.24 853 25.19 21 69.8 20 -2.9 26.8 21.09 0.83
14:44 1024 30.24 853 25.19 21 69.8 19 -3.4 25.9 21.11 0.831
14:45 1024 30.24 853 25.19 21.1 69.9 19 -3.4 25.8 21.1 0.831
14:46 1024 30.24 853 25.19 21.1 70 20 -2.6 27.3 21.04 0.828
14:47 1024 30.24 853 25.19 21.2 70.1 21 -1.9 28.5 21.15 0.833
14:48 1024 30.24 853 25.19 21.3 70.3 19 -3.1 26.4 21.22 0.835
14:49 1024 30.24 853 25.19 21.3 70.4 21 -1.7 28.9 21.17 0.833
14:50 1024 30.24 853 25.19 21.3 70.3 21 -1.8 28.8 21.13 0.832
14:51 1024 30.24 853 25.19 21.3 70.3 21 -1.7 29 21.11 0.831
14:52 1024 30.24 853 25.19 21.2 70.2 19 -3.1 26.4 21.04 0.828
14:53 1024 30.24 853 25.19 21.1 70 21 -2 28.4 21.01 0.827
14:54 1024 30.24 853 25.19 21.1 70 20 -2.4 27.7 20.94 0.824
14:55 1024 30.24 853 25.19 21 69.8 21 -2 28.5 20.89 0.822
14:56 1024 30.24 853 25.19 21.1 69.9 20 -2.5 27.5 21 0.827
14:57 1024 30.24 853 25.19 21.1 70 19 -3 26.5 21.12 0.831
14:58 1024 30.24 853 25.19 21.1 70 25 0.4 32.7 21.22 0.835
14:59 1023 30.21 853 25.19 21.3 70.3 20 -2.1 28.2 21.41 0.843
15:00 1023 30.21 853 25.19 21.4 70.5 18 -3.6 25.5 21.46 0.845
15:01 1023 30.21 853 25.19 21.3 70.3 21 -1.9 28.5 21.55 0.848
15:02 1023 30.21 853 25.19 21.2 70.2 20 -2.5 27.6 21.69 0.854
15:03 1023 30.21 853 25.19 21.3 70.3 26 1.1 33.9 21.8 0.858
15:04 1023 30.21 853 25.19 21.3 70.3 23 -0.8 30.6 21.7 0.854
15:05 1023 30.21 853 25.19 21.3 70.3 19 -3.3 26.1 21.59 0.85
15:06 1023 30.21 853 25.19 21.3 70.3 19 -3.3 26.1 21.51 0.847
15:07 1023 30.21 853 25.19 21.3 70.4 19 -3 26.6 21.6 0.85
15:08 1023 30.21 853 25.19 21.3 70.4 19 -3.3 26 21.72 0.855
15:09 1023 30.21 853 25.19 21.4 70.6 20 -2.5 27.5 21.82 0.859
15:10 1023 30.21 853 25.19 21.6 70.9 18 -3.4 25.8 21.92 0.863
15:11 1023 30.21 853 25.19 21.7 71 21 -1.4 29.5 21.9 0.862
15:12 1023 30.21 853 25.19 21.8 71.2 19 -2.5 27.6 21.97 0.865
15:13 1023 30.21 853 25.19 21.8 71.2 19 -2.7 27.2 21.85 0.86
15:14 1023 30.21 853 25.19 21.8 71.2 20 -2.3 27.9 21.83 0.859
15:15 1023 30.21 853 25.19 21.7 71.1 19 -2.9 26.7 21.77 0.857
15:16 1023 30.21 853 25.19 21.7 71 21 -1.4 29.4 21.72 0.855
15:17 1023 30.21 853 25.19 21.8 71.2 18 -3.5 25.8 21.81 0.859
15:18 1023 30.21 853 25.19 21.8 71.2 21 -1.5 29.2 21.75 0.856
15:19 1023 30.21 852 25.16 21.7 71.1 19 -2.5 27.6 21.72 0.855
15:20 1023 30.21 852 25.16 21.7 71.1 19 -2.6 27.2 21.69 0.854
15:21 1023 30.21 852 25.16 21.8 71.2 18 -3.2 26.3 21.74 0.856
15:22 1023 30.21 852 25.16 21.9 71.4 17 -4 24.8 21.93 0.863
15:23 1023 30.21 852 25.16 21.9 71.4 17 -4.3 24.3 22.11 0.87
15:24 1023 30.21 852 25.16 22.1 71.8 18 -3 26.6 22.31 0.878
15:25 1023 30.21 852 25.16 22.3 72.2 18 -3.1 26.4 22.55 0.888
15:26 1023 30.21 852 25.16 22.4 72.3 17 -4 24.8 22.66 0.892
15:27 1023 30.21 852 25.16 22.5 72.4 17 -3.4 25.8 22.69 0.893
15:28 1023 30.21 852 25.16 22.5 72.5 18 -2.5 27.5 22.83 0.899
15:29 1023 30.21 852 25.16 22.6 72.7 17 -3.5 25.7 22.89 0.901
15:30 1023 30.21 852 25.16 22.7 72.9 19 -2.1 28.2 22.84 0.899
15:31 1023 30.21 852 25.16 22.9 73.1 20 -1.3 29.6 22.93 0.903
15:32 1023 30.21 852 25.16 22.9 73.2 18 -2.6 27.4 22.74 0.895
15:33 1023 30.21 852 25.16 22.8 73 22 0.3 32.5 22.53 0.887
15:34 1023 30.21 852 25.16 22.6 72.7 18 -2.7 27.2 22.38 0.881
15:35 1023 30.21 852 25.16 22.2 72 16 -4.3 24.2 22.14 0.872
15:36 1023 30.21 852 25.16 21.9 71.5 20 -1.7 29 21.92 0.863
15:37 1023 30.21 852 25.16 21.8 71.2 17 -3.9 25 21.8 0.858
15:38 1023 30.21 852 25.16 21.7 71 19 -2.8 26.9 21.73 0.856
15:39 1023 30.21 852 25.16 21.6 70.9 19 -2.7 27.2 21.66 0.853
15:40 1023 30.21 852 25.16 21.6 70.9 18 -3.6 25.5 21.73 0.856
15:41 1023 30.21 852 25.16 21.6 70.9 19 -2.5 27.5 21.81 0.859
15:42 1023 30.21 852 25.16 21.6 70.9 20 -2.1 28.2 21.9 0.862
15:43 1023 30.21 852 25.16 21.6 70.9 20 -2.4 27.6 22.03 0.867
15:44 1023 30.21 852 25.16 21.6 70.8 17 -4.7 23.6 22.12 0.871
15:45 1023 30.21 852 25.16 21.6 71 19 -3 26.5 22.34 0.88
15:46 1023 30.21 852 25.16 21.8 71.2 19 -2.4 27.6 22.55 0.888
15:47 1023 30.21 852 25.16 21.9 71.4 20 -1.6 29 22.67 0.893
15:48 1023 30.21 852 25.16 21.9 71.5 21 -1.3 29.7 22.89 0.901
15:49 1023 30.21 852 25.16 22 71.7 19 -2.4 27.7 22.88 0.901
15:50 1023 30.21 852 25.16 22.1 71.8 19 -2.4 27.7 22.84 0.899
15:51 1023 30.21 852 25.16 22.2 71.9 20 -1.7 29 22.78 0.897
15:52 1023 30.21 852 25.16 22.2 71.9 16 -4.4 24.1 22.7 0.894
15:53 1023 30.21 852 25.16 22.1 71.7 17 -4 24.8 22.53 0.887
15:54 1023 30.21 852 25.16 22.1 71.7 18 -3.4 25.8 22.49 0.885
15:55 1023 30.21 852 25.16 22.1 71.7 21 -1.2 29.8 22.61 0.89
15:56 1023 30.21 852 25.16 22.3 72.1 20 -1.3 29.7 22.77 0.896
15:57 1023 30.21 852 25.16 22.4 72.4 18 -3 26.5 22.84 0.899
15:58 1023 30.21 852 25.16 22.4 72.4 22 -0 32 22.8 0.898
15:59 1023 30.21 852 25.16 22.3 72.2 18 -3 26.5 22.88 0.901
16:00 1023 30.21 852 25.16 22.3 72.1 21 -0.9 30.4 22.95 0.904
16:01 1023 30.21 852 25.16 22.3 72.1 18 -3.4 25.9 22.99 0.905
16:02 1023 30.21 852 25.16 22.3 72.1 17 -3.4 25.9 22.83 0.899
16:03 1023 30.21 852 25.16 22.4 72.3 21 -0.8 30.6 22.88 0.901
16:04 1023 30.21 852 25.16 22.4 72.3 19 -2.4 27.7 22.87 0.9
16:05 1023 30.21 852 25.16 22.4 72.4 17 -3.7 25.3 22.88 0.901
16:06 1023 30.21 852 25.16 22.6 72.6 18 -3 26.6 22.96 0.904
16:07 1023 30.21 852 25.16 22.7 72.9 19 -1.9 28.6 23.04 0.907
16:08 1023 30.21 852 25.16 22.9 73.1 18 -2.6 27.3 23.12 0.91
16:09 1023 30.21 852 25.16 23 73.4 19 -1.9 28.7 23.09 0.909
16:10 1023 30.21 852 25.16 22.9 73.3 15 -4.5 23.9 22.89 0.901
16:11 1023 30.21 852 25.16 22.8 73 19 -1.5 29.2 22.71 0.894
16:12 1023 30.21 852 25.16 22.7 72.8 21 -0.5 31 22.64 0.891
16:13 1023 30.21 852 25.16 22.5 72.5 19 -2.2 28 22.53 0.887
16:14 1023 30.21 852 25.16 22.4 72.4 19 -2.4 27.6 22.45 0.884
16:15 1023 30.21 852 25.16 22.3 72.2 17 -3.7 25.3 22.38 0.881
16:16 1023 30.21 852 25.16 22.3 72.2 18 -2.7 27.2 22.4 0.882
16:17 1023 30.21 852 25.16 22.4 72.3 20 -1.6 29 22.45 0.884
16:18 1023 30.21 852 25.16 22.4 72.4 18 -2.7 27.2 22.49 0.885
16:19 1023 30.21 852 25.16 22.4 72.4 20 -1.7 29 22.49 0.885
16:20 1022 30.18 852 25.16 22.5 72.6 17 -3.7 25.3 22.52 0.887
16:21 1022 30.18 852 25.16 22.5 72.6 22 -0.2 31.7 22.52 0.887
16:22 1022 30.18 852 25.16 22.4 72.4 20 -1.1 29.9 22.48 0.885
16:23 1022 30.18 852 25.16 22.4 72.4 23 0.5 33 22.52 0.887
16:24 1022 30.18 852 25.16 22.4 72.2 17 -3.3 26 22.43 0.883
16:25 1022 30.18 852 25.16 22.3 72.1 20 -1.8 28.7 22.38 0.881
16:26 1022 30.18 852 25.16 22.3 72.1 18 -2.9 26.8 22.38 0.881
16:27 1022 30.18 852 25.16 22.3 72.1 17 -3.6 25.6 22.43 0.883
16:28 1022 30.18 852 25.16 22.3 72.2 19 -2 28.4 22.4 0.882
16:29 1022 30.18 852 25.16 22.3 72.2 17 -3.5 25.6 22.37 0.881
16:30 1022 30.18 852 25.16 22.3 72.1 18 -3.4 26 22.33 0.879
16:31 1022 30.18 852 25.16 22.2 72 19 -2.5 27.5 22.36 0.88
16:32 1022 30.18 852 25.16 22.3 72.2 18 -3.2 26.3 22.4 0.882
16:33 1022 30.18 852 25.16 22.4 72.3 22 -0.4 31.3 22.38 0.881
16:34 1022 30.18 852 25.16 22.3 72.2 20 -1.8 28.8 22.36 0.88
16:35 1022 30.18 852 25.16 22.3 72.2 17 -3.5 25.6 22.31 0.878
16:36 1022 30.18 852 25.16 22.4 72.2 18 -2.9 26.9 22.38 0.881
16:37 1022 30.18 852 25.16 22.4 72.4 16 -4.7 23.5 22.44 0.883
16:38 1022 30.18 852 25.16 22.5 72.5 18 -3.2 26.3 22.47 0.885
16:39 1022 30.18 852 25.16 22.5 72.6 17 -3.4 26 22.43 0.883
16:40 1022 30.18 851 25.13 22.4 72.4 20 -1.4 29.5 22.4 0.882
16:41 1022 30.18 851 25.13 22.4 72.3 18 -2.8 27 22.41 0.882
16:42 1022 30.18 851 25.13 22.4 72.3 19 -2 28.3 22.4 0.882
16:43 1022 30.18 851 25.13 22.4 72.3 17 -3.5 25.6 22.38 0.881
16:44 1022 30.18 851 25.13 22.4 72.2 19 -2.5 27.5 22.33 0.879
16:45 1022 30.18 851 25.13 22.3 72.1 17 -3.7 25.4 22.29 0.878
16:46 1022 30.18 851 25.13 22.2 72 20 -1.8 28.7 22.26 0.876
16:47 1022 30.18 851 25.13 22.2 71.9 21 -1.2 29.8 22.27 0.877
16:48 1022 30.18 851 25.13 22.2 72 17 -3.8 25.2 22.28 0.877
16:49 1022 30.18 851 25.13 22.2 72 21 -1.2 29.9 22.32 0.879
16:50 1022 30.18 851 25.13 22.3 72.1 16 -4.3 24.3 22.34 0.88
16:51 1022 30.18 851 25.13 22.3 72.1 17 -3.7 25.3 22.37 0.881
16:52 1022 30.18 851 25.13 22.3 72.1 20 -1.6 29.1 22.43 0.883
16:53 1022 30.18 851 25.13 22.4 72.2 22 -0.4 31.3 22.51 0.886
16:54 1022 30.18 851 25.13 22.4 72.3 22 -0.4 31.2 22.5 0.886
16:55 1022 30.18 851 25.13 22.5 72.4 19 -1.9 28.5 22.48 0.885
16:56 1022 30.18 851 25.13 22.5 72.6 20 -1.3 29.6 22.42 0.883
16:57 1022 30.18 851 25.13 22.5 72.6 20 -1.4 29.4 22.46 0.884
16:58 1022 30.18 851 25.13 22.6 72.8 16 -4.6 23.7 22.51 0.886
16:59 1022 30.18 851 25.13 22.9 73.1 16 -4 24.7 22.7 0.894
17:00 1022 30.18 851 25.13 23.1 73.6 18 -2.4 27.7 22.96 0.904
17:01 1022 30.18 851 25.13 23.3 74 17 -2.9 26.7 23.12 0.91
17:02 1022 30.18 851 25.13 23.4 74 21 -0 31.9 23.21 0.914
17:03 1022 30.18 851 25.13 23.4 74.1 21 -0 31.9 23.21 0.914
17:04 1022 30.18 851 25.13 23.4 74 17 -2.8 26.9 23.08 0.909
17:05 1022 30.18 851 25.13 23.2 73.8 19 -1.8 28.8 22.99 0.905
17:06 1022 30.18 851 25.13 23 73.3 16 -4 24.9 22.72 0.894
17:07 1022 30.18 851 25.13 22.8 73 19 -2.2 28.1 22.59 0.889
17:08 1022 30.18 851 25.13 22.6 72.7 18 -2.4 27.7 22.55 0.888
17:09 1022 30.18 851 25.13 22.6 72.6 17 -3.5 25.7 22.41 0.882
17:10 1022 30.18 851 25.13 22.5 72.4 17 -3.3 26.1 22.46 0.884
17:11 1022 30.18 851 25.13 22.4 72.4 19 -2.3 27.8 22.47 0.885
17:12 1022 30.18 851 25.13 22.5 72.5 21 -0.9 30.4 22.52 0.887
17:13 1022 30.18 851 25.13 22.5 72.5 21 -0.6 31 22.53 0.887
17:14 1022 30.18 851 25.13 22.5 72.4 21 -0.7 30.8 22.45 0.884
17:15 1022 30.18 851 25.13 22.4 72.3 20 -1.2 29.8 22.34 0.88
17:16 1022 30.18 851 25.13 22.3 72.1 20 -1.4 29.4 22.23 0.875
17:17 1022 30.18 851 25.13 22.2 71.9 20 -1.6 29.1 22.17 0.873
17:18 1022 30.18 851 25.13 22.1 71.7 22 -0.3 31.5 22.1 0.87
17:19 1022 30.18 851 25.13 22 71.6 24 0.7 33.2 22.04 0.868
17:20 1022 30.18 851 25.13 22 71.6 25 1.5 34.6 22.01 0.867
17:21 1022 30.18 851 25.13 22 71.6 24 0.8 33.5 22.06 0.869
17:22 1022 30.18 851 25.13 22 71.6 21 -1 30.2 21.97 0.865
17:23 1022 30.18 851 25.13 21.9 71.3 21 -1.5 29.4 21.88 0.861
17:24 1022 30.18 851 25.13 21.8 71.2 20 -2.2 28.1 21.82 0.859
17:25 1022 30.18 851 25.13 21.7 71 21 -1.7 28.9 21.76 0.857
17:26 1022 30.18 851 25.13 21.6 71 22 -0.5 31.1 21.76 0.857
17:27 1022 30.18 851 25.13 21.6 70.9 23 -0.3 31.4 21.73 0.856
17:28 1022 30.18 851 25.13 21.5 70.7 21 -1.4 29.5 21.68 0.854
17:29 1022 30.18 851 25.13 21.5 70.7 21 -1.5 29.4 21.6 0.85
17:30 1022 30.18 851 25.13 21.4 70.6 19 -2.8 27 21.56 0.849
17:31 1022 30.18 851 25.13 21.4 70.6 20 -2.5 27.5 21.56 0.849
17:32 1022 30.18 851 25.13 21.4 70.6 22 -1.2 29.9 21.61 0.851
17:33 1022 30.18 851 25.13 21.5 70.6 23 -0.6 31 21.63 0.852
17:34 1022 30.18 851 25.13 21.5 70.7 23 -0.6 31 21.62 0.851
17:35 1022 30.18 851 25.13 21.5 70.7 22 -0.9 30.4 21.61 0.851
17:36 1022 30.18 851 25.13 21.5 70.7 22 -0.7 30.7 21.59 0.85
17:37 1022 30.18 851 25.13 21.5 70.7 22 -0.9 30.3 21.6 0.85
17:38 1022 30.18 851 25.13 21.5 70.8 22 -0.7 30.7 21.62 0.851
17:39 1022 30.18 851 25.13 21.5 70.8 22 -0.6 30.9 21.62 0.851
17:40 1022 30.18 851 25.13 21.6 70.8 22 -0.7 30.8 21.66 0.853
17:41 1022 30.18 851 25.13 21.6 70.8 22 -1.1 30 21.74 0.856
17:42 1022 30.18 851 25.13 21.6 70.9 23 -0.5 31.2 21.83 0.859
17:43 1022 30.18 851 25.13 21.6 70.9 22 -0.8 30.6 21.92 0.863
17:44 1022 30.18 851 25.13 21.6 70.9 21 -1.5 29.3 21.9 0.862
17:45 1022 30.18 851 25.13 21.6 70.8 20 -2.4 27.7 21.91 0.863
17:46 1022 30.18 851 25.13 21.5 70.8 22 -1.1 29.9 21.9 0.862
17:47 1022 30.18 851 25.13 21.5 70.7 21 -1.3 29.6 21.94 0.864
17:48 1022 30.18 851 25.13 21.5 70.7 21 -1.3 29.6 22.08 0.869
17:49 1022 30.18 851 25.13 21.5 70.6 22 -0.9 30.4 22.16 0.872
17:50 1022 30.18 851 25.13 21.3 70.4 24 -0.1 31.8 22.17 0.873
17:51 1022 30.18 851 25.13 21.2 70.1 21 -1.7 29 22.11 0.87
17:52 1022 30.18 851 25.13 21.1 69.9 21 -1.8 28.8 22.05 0.868
17:53 1022 30.18 851 25.13 21.1 70 21 -2 28.5 22.04 0.868
17:54 1022 30.18 851 25.13 21.1 69.9 22 -1.5 29.3 22.1 0.87
17:55 1022 30.18 851 25.13 21.1 69.9 21 -2.1 28.2 22.09 0.87
17:56 1022 30.18 851 25.13 21.2 70.1 20 -2.3 27.8 22.09 0.87
17:57 1022 30.18 851 25.13 21.2 70.2 20 -2.4 27.6 22.09 0.87
17:58 1022 30.18 851 25.13 21.2 70.2 19 -3.2 26.2 22.08 0.869
17:59 1022 30.18 851 25.13 21.3 70.3 20 -2.7 27.2 22.16 0.872
18:00 1022 30.18 851 25.13 21.3 70.3 22 -1.4 29.4 22.14 0.872
18:01 1022 30.18 851 25.13 21.1 70 21 -1.8 28.8 21.99 0.866
18:02 1022 30.18 851 25.13 21 69.8 20 -2.4 27.7 21.85 0.86
18:03 1021 30.15 851 25.13 20.9 69.6 21 -1.9 28.6 21.71 0.855
18:04 1022 30.18 851 25.13 20.8 69.4 23 -1 30.3 21.62 0.851
18:05 1022 30.18 851 25.13 20.6 69 22 -1.4 29.4 21.5 0.846
18:06 1022 30.18 851 25.13 20.4 68.8 22 -1.6 29.1 21.33 0.84
18:07 1021 30.15 851 25.13 20.4 68.6 22 -2.1 28.2 21.18 0.834
18:08 1022 30.18 851 25.13 20.3 68.5 22 -2 28.4 21.03 0.828
18:09 1021 30.15 851 25.13 20.2 68.4 21 -2.5 27.4 20.97 0.826
18:10 1021 30.15 851 25.13 20.2 68.4 21 -2.7 27.1 20.86 0.821
18:11 1021 30.15 851 25.13 20.1 68.2 21 -3 26.6 20.82 0.82
18:12 1021 30.15 851 25.13 20.1 68.2 22 -2.4 27.6 20.74 0.817
18:13 1021 30.15 851 25.13 20 68 23 -1.8 28.8 20.61 0.811
18:14 1021 30.15 851 25.13 19.8 67.6 29 1.3 34.3 20.38 0.802
18:15 1021 30.15 851 25.13 19.4 66.8 23 -2 28.4 19.93 0.785
18:16 1021 30.15 851 25.13 19.3 66.7 22 -2.6 27.2 19.8 0.78
18:17 1021 30.15 851 25.13 19.4 66.9 22 -3 26.6 19.82 0.78
18:18 1021 30.15 851 25.13 19.5 67.1 21 -3.1 26.4 19.86 0.782
18:19 1021 30.15 851 25.13 19.6 67.2 20 -3.6 25.6 19.95 0.785
18:20 1021 30.15 851 25.13 19.7 67.4 20 -3.7 25.4 19.99 0.787
18:21 1021 30.15 851 25.13 19.7 67.5 20 -3.8 25.2 20.04 0.789
18:22 1021 30.15 851 25.13 19.7 67.4 27 0.4 32.6 20 0.787
18:23 1021 30.15 851 25.13 18.9 66 29 0.8 33.4 19.19 0.756
18:24 1021 30.15 851 25.13 17.9 64.2 33 1.7 35 18.2 0.717
18:25 1021 30.15 851 25.13 16.9 62.4 34 1.3 34.3 17.2 0.677
18:26 1021 30.15 851 25.13 16.5 61.8 35 1.3 34.3 16.83 0.663
18:27 1021 30.15 851 25.13 16.2 61.1 38 1.8 35.2 16.49 0.649
18:28 1021 30.15 851 25.13 15.7 60.2 40 2.3 36.2 16 0.63
18:29 1021 30.15 851 25.13 15 59 41 1.9 35.5 15.39 0.606
18:30 1021 30.15 851 25.13 14.8 58.7 42 2 35.5 15.17 0.597
18:31 1021 30.15 851 25.13 14.8 58.7 41 1.7 35 15.16 0.597
18:32 1021 30.15 851 25.13 14.8 58.6 42 2 35.6 15.11 0.595
18:33 1021 30.15 851 25.13 14.5 58.2 43 2.3 36.2 14.87 0.585
18:34 1021 30.15 851 25.13 14 57.3 46 2.7 36.9 14.34 0.565
18:35 1021 30.15 851 25.13 13.7 56.6 47 2.6 36.7 13.97 0.55
18:36 1021 30.15 851 25.13 13.3 56 49 2.9 37.3 13.51 0.532
18:37 1021 30.15 851 25.13 12.8 55 50 2.8 37 13.02 0.513
18:38 1021 30.15 851 25.13 12.4 54.2 53 3 37.5 12.58 0.495
18:39 1021 30.15 851 25.13 11.7 53.1 55 3 37.4 12.01 0.473
18:40 1021 30.15 851 25.13 11.3 52.3 55 2.5 36.5 11.57 0.456
18:41 1021 30.15 851 25.13 11.1 52 54 2.3 36.2 11.41 0.449
18:42 1021 30.15 851 25.13 11 51.8 55 2.4 36.4 11.29 0.444
18:43 1021 30.15 851 25.13 10.7 51.3 56 2.3 36.1 11.03 0.434
18:44 1021 30.15 851 25.13 10.5 50.9 57 2.3 36.2 10.83 0.426
18:45 1021 30.15 851 25.13 10.3 50.5 58 2.5 36.5 10.61 0.418
18:46 1021 30.15 851 25.13 10 50.1 59 2.5 36.6 10.38 0.409
18:47 1021 30.15 851 25.13 9.7 49.5 60 2.4 36.4 10.09 0.397
18:48 1021 30.15 851 25.13 9.5 49 62 2.6 36.6 9.74 0.383
18:49 1021 30.15 851 25.13 9.1 48.4 63 2.4 36.4 9.46 0.372
18:50 1021 30.15 851 25.13 9 48.1 62 2.1 35.8 9.3 0.366
18:51 1021 30.15 851 25.13 8.9 48 62 2.1 35.7 9.26 0.365
18:52 1021 30.15 851 25.13 8.8 47.8 63 2.1 35.7 9.15 0.36
18:53 1021 30.15 851 25.13 8.8 47.8 63 2.1 35.9 9.17 0.361
18:54 1021 30.15 851 25.13 8.6 47.5 64 2.2 35.9 8.99 0.354
18:55 1021 30.15 851 25.13 8.5 47.2 64 2 35.6 8.87 0.349
18:56 1021 30.15 851 25.13 8.4 47.2 64 2.1 35.8 8.79 0.346
18:57 1021 30.15 851 25.13 8.3 46.9 65 2.1 35.7 8.59 0.338
18:58 1021 30.15 851 25.13 8.2 46.7 64 1.8 35.3 8.51 0.335
18:59 1021 30.15 851 25.13 8.2 46.7 64 1.8 35.2 8.56 0.337
19:00 1021 30.15 851 25.13 8.3 46.9 63 1.7 35 8.62 0.339
19:01 1021 30.15 851 25.13 8.3 47 63 1.6 35 8.68 0.342
19:02 1021 30.15 851 25.13 8.5 47.2 61 1.4 34.6 8.8 0.346
19:03 1021 30.15 851 25.13 8.6 47.5 60 1.4 34.5 8.96 0.353
19:04 1021 30.15 851 25.13 8.8 47.8 60 1.4 34.5 9.15 0.36
19:05 1021 30.15 851 25.13 8.9 48.1 60 1.5 34.8 9.28 0.365
19:06 1021 30.15 851 25.13 9 48.2 59 1.4 34.5 9.34 0.368
19:07 1021 30.15 851 25.13 9 48.1 59 1.4 34.4 9.27 0.365
19:08 1021 30.15 851 25.13 8.8 47.8 59 1.2 34.2 9.18 0.361
19:09 1021 30.15 851 25.13 8.8 47.9 59 1.3 34.3 9.18 0.361
19:10 1021 30.15 851 25.13 8.7 47.7 59 1.2 34.2 9.06 0.357
19:11 1022 30.18 851 25.13 8.5 47.4 60 1.3 34.3 8.9 0.35
19:12 1022 30.18 851 25.13 8.4 47.1 60 1.2 34.1 8.78 0.346
19:13 1022 30.18 851 25.13 8.6 47.5 59 1.1 34 9 0.354
19:14 1022 30.18 851 25.13 8.8 47.8 60 1.5 34.7 9.16 0.361
19:15 1022 30.18 851 25.13 8.8 47.8 60 1.4 34.6 9.16 0.361
19:16 1022 30.18 851 25.13 8.7 47.7 60 1.4 34.5 9.11 0.359
19:17 1022 30.18 851 25.13 8.7 47.6 60 1.5 34.6 9.04 0.356
19:18 1022 30.18 851 25.13 8.5 47.3 61 1.4 34.5 8.85 0.348
19:19 1022 30.18 851 25.13 8.6 47.5 59 1.2 34.1 8.94 0.352
19:20 1022 30.18 851 25.13 8.8 47.8 60 1.5 34.6 9.08 0.357
19:21 1022 30.18 851 25.13 8.7 47.7 60 1.5 34.7 9.08 0.357
19:22 1022 30.18 851 25.13 8.6 47.5 61 1.5 34.8 8.97 0.353
19:23 1022 30.18 851 25.13 8.5 47.3 61 1.4 34.5 8.85 0.348
19:24 1022 30.18 851 25.13 8.5 47.2 61 1.4 34.6 8.81 0.347
19:25 1022 30.18 851 25.13 8.4 47.2 61 1.5 34.6 8.76 0.345
19:26 1022 30.18 851 25.13 8.3 46.9 62 1.4 34.5 8.62 0.339
19:27 1022 30.18 851 25.13 8.2 46.8 62 1.3 34.4 8.56 0.337
19:28 1022 30.18 851 25.13 8.2 46.8 60 1 33.8 8.6 0.339
19:29 1022 30.18 851 25.13 8.5 47.4 59 1 33.8 8.87 0.349
19:30 1022 30.18 851 25.13 8.7 47.7 58 1 33.8 9.09 0.358
19:31 1022 30.18 851 25.13 9 48.2 57 0.9 33.7 9.32 0.367
19:32 1022 30.18 851 25.13 9.1 48.4 57 0.9 33.7 9.45 0.372
19:33 1022 30.18 851 25.13 9.3 48.7 56 1 33.8 9.61 0.378
19:34 1022 30.18 851 25.13 9.2 48.6 57 1.3 34.3 9.62 0.379
19:35 1022 30.18 851 25.13 9.1 48.4 57 1.1 34 9.48 0.373
19:36 1022 30.18 851 25.13 9 48.3 58 1.1 34 9.4 0.37
19:37 1022 30.18 851 25.13 8.9 48.1 59 1.3 34.4 9.3 0.366
19:38 1022 30.18 851 25.13 8.7 47.7 60 1.5 34.7 9.12 0.359
19:39 1022 30.18 851 25.13 8.6 47.4 60 1.2 34.2 8.96 0.353
19:40 1022 30.18 851 25.13 8.5 47.3 60 1.2 34.1 8.87 0.349
19:41 1022 30.18 851 25.13 8.4 47.2 60 1.1 33.9 8.81 0.347
19:42 1022 30.18 851 25.13 8.5 47.3 59 0.9 33.6 8.89 0.35
19:43 1022 30.18 851 25.13 8.6 47.5 59 1.2 34.1 8.95 0.352
19:44 1022 30.18 851 25.13 8.4 47.2 61 1.3 34.4 8.82 0.347
19:45 1022 30.18 851 25.13 8.2 46.8 60 1.1 33.9 8.63 0.34
19:46 1022 30.18 851 25.13 8.1 46.5 61 1.1 33.9 8.48 0.334
19:47 1022 30.18 851 25.13 7.9 46.3 62 1.1 33.9 8.32 0.328
19:48 1022 30.18 851 25.13 7.7 45.9 62 1 33.8 8.14 0.32
19:49 1022 30.18 851 25.13 7.7 45.8 62 0.8 33.5 8 0.315
19:50 1022 30.18 851 25.13 7.6 45.7 63 0.9 33.7 7.93 0.312
19:51 1022 30.18 851 25.13 7.4 45.4 63 1 33.7 7.82 0.308
19:52 1022 30.18 851 25.13 7.3 45.2 64 0.9 33.7 7.67 0.302
19:53 1022 30.18 851 25.13 7.2 45 64 1 33.7 7.58 0.298
19:54 1022 30.18 851 25.13 7.1 44.7 65 0.9 33.7 7.44 0.293
19:55 1022 30.18 851 25.13 6.9 44.4 65 0.8 33.5 7.3 0.287
19:56 1022 30.18 851 25.13 6.8 44.3 65 0.7 33.2 7.18 0.283
19:57 1022 30.18 851 25.13 6.9 44.4 64 0.6 33 7.19 0.283
19:58 1022 30.18 851 25.13 7 44.6 60 -0.2 31.6 7.34 0.289
19:59 1022 30.18 851 25.13 7.7 45.9 55 -0.7 30.8 7.96 0.313
20:00 1022 30.18 851 25.13 8.8 47.9 51 -0.8 30.6 8.98 0.354
20:01 1022 30.18 851 25.13 9.7 49.4 48 -0.9 30.5 9.88 0.389
20:02 1022 30.18 851 25.13 10.3 50.6 46 -0.9 30.4 10.62 0.418
20:03 1022 30.18 851 25.13 10.9 51.6 43 -1.1 30.1 11.18 0.44
20:04 1022 30.18 851 25.13 11.4 52.4 41 -1.3 29.7 11.64 0.458
20:05 1022 30.18 851 25.13 11.8 53.2 40 -1.5 29.3 12.1 0.476
20:06 1022 30.18 851 25.13 12.1 53.8 39 -1.3 29.6 12.42 0.489
20:07 1022 30.18 851 25.13 12.3 54.2 37 -1.9 28.6 12.65 0.498
20:08 1022 30.18 851 25.13 12.6 54.8 36 -1.9 28.5 12.98 0.511
20:09 1022 30.18 851 25.13 12.9 55.2 36 -1.7 29 13.18 0.519
20:10 1022 30.18 851 25.13 12.9 55.3 36 -1.6 29.2 13.27 0.522
20:11 1022 30.18 851 25.13 13 55.3 36 -1.6 29.1 13.31 0.524
20:12 1022 30.18 851 25.13 12.9 55.3 37 -1.2 29.8 13.31 0.524
20:13 1022 30.18 851 25.13 12.7 54.9 39 -0.9 30.4 13.11 0.516
20:14 1022 30.18 851 25.13 12.4 54.3 40 -0.7 30.8 12.76 0.502
20:15 1022 30.18 851 25.13 12.1 53.7 40 -0.9 30.4 12.51 0.493
20:16 1022 30.18 851 25.13 11.9 53.4 41 -1 30.2 12.27 0.483
20:17 1022 30.18 851 25.13 11.7 53 42 -0.7 30.8 12.05 0.474
20:18 1022 30.18 851 25.13 11.4 52.5 43 -0.8 30.6 11.8 0.465
20:19 1022 30.18 851 25.13 11.2 52.1 43 -1 30.2 11.61 0.457
20:20 1022 30.18 851 25.13 11.2 52.1 43 -0.9 30.3 11.55 0.455
20:21 1022 30.18 851 25.13 11.1 51.9 43 -1.1 30 11.47 0.452
20:22 1022 30.18 851 25.13 11 51.8 42 -1.2 29.8 11.36 0.447
20:23 1022 30.18 851 25.13 11 51.7 42 -1.3 29.7 11.36 0.447
20:24 1022 30.18 851 25.13 11 51.8 41 -1.5 29.2 11.39 0.448
20:25 1022 30.18 851 25.13 11.1 52 41 -1.5 29.3 11.44 0.45
20:26 1022 30.18 851 25.13 11.1 51.9 42 -1.3 29.7 11.44 0.45
20:27 1022 30.18 851 25.13 11 51.7 42 -1.4 29.4 11.32 0.446
20:28 1022 30.18 851 25.13 11 51.7 45 -0.5 31.1 11.25 0.443
20:29 1022 30.18 851 25.13 10.4 50.7 49 0.1 32.2 10.72 0.422
20:30 1022 30.18 851 25.13 9.3 48.7 49 -0.8 30.5 9.76 0.384
20:31 1022 30.18 851 25.13 9 48.3 50 -0.9 30.4 9.61 0.378
20:32 1022 30.18 851 25.13 8.9 48.1 52 -0.4 31.3 9.46 0.372
20:33 1022 30.18 851 25.13 8.4 47.1 53 -0.5 31 8.93 0.352
20:34 1022 30.18 851 25.13 8 46.3 55 -0.6 31 8.45 0.333
20:35 1022 30.18 851 25.13 7.6 45.7 56 -0.7 30.8 8.11 0.319
20:36 1022 30.18 851 25.13 7.4 45.2 56 -0.8 30.6 7.86 0.309
20:37 1022 30.18 851 25.13 7.2 45 58 -0.5 31.1 7.7 0.303
20:38 1022 30.18 851 25.13 7.1 44.9 58 -0.6 31 7.59 0.299
20:39 1022 30.18 851 25.13 7 44.6 59 -0.5 31 7.39 0.291
20:40 1022 30.18 851 25.13 6.7 44.1 60 -0.5 31.1 7.14 0.281
20:41 1022 30.18 851 25.13 6.4 43.5 61 -0.6 31 6.822 0.269
20:42 1022 30.18 851 25.13 6.1 43 62 -0.6 30.9 6.579 0.259
20:43 1022 30.18 851 25.13 6 42.8 63 -0.5 31.1 6.477 0.255
20:44 1022 30.18 851 25.13 5.9 42.7 63 -0.6 31 6.387 0.251
20:45 1022 30.18 851 25.13 6 42.8 62 -0.7 30.8 6.449 0.254
20:46 1022 30.18 851 25.13 6.3 43.3 61 -0.7 30.8 6.647 0.262
20:47 1022 30.18 851 25.13 6.7 44 58 -1 30.3 7.05 0.278
20:48 1022 30.18 851 25.13 7.1 44.8 57 -0.8 30.5 7.35 0.289
20:49 1022 30.18 851 25.13 7.3 45.1 57 -0.5 31 7.53 0.296
20:50 1022 30.18 851 25.13 7.3 45.2 57 -0.6 30.9 7.62 0.3
20:51 1022 30.18 851 25.13 7.4 45.4 57 -0.5 31.2 7.73 0.304
20:52 1022 30.18 851 25.13 7.6 45.6 56 -0.6 30.9 7.84 0.309
20:53 1022 30.18 851 25.13 7.9 46.1 54 -0.7 30.7 8.17 0.322
20:54 1022 30.18 851 25.13 8.1 46.6 54 -0.7 30.8 8.45 0.333
20:55 1022 30.18 851 25.13 8.4 47.1 52 -1 30.3 8.63 0.34
20:56 1022 30.18 851 25.13 8.7 47.6 51 -0.9 30.4 8.93 0.352
20:57 1022 30.18 851 25.13 8.8 47.8 51 -0.7 30.8 8.98 0.354
20:58 1022 30.18 851 25.13 8.7 47.6 52 -0.6 30.9 8.9 0.35
20:59 1022 30.18 851 25.13 8.6 47.4 50 -1.3 29.6 8.9 0.35
21:00 1022 30.18 851 25.13 9 48.2 48 -1.4 29.4 9.22 0.363
21:01 1022 30.18 851 25.13 9.2 48.6 49 -0.8 30.5 9.43 0.371
21:02 1022 30.18 851 25.13 8.8 47.9 50 -1.1 30.1 9.07 0.357
21:03 1022 30.18 851 25.13 8.6 47.5 51 -0.8 30.6 8.86 0.349
21:04 1022 30.18 851 25.13 8.4 47 51 -1.2 29.9 8.64 0.34
21:05 1022 30.18 851 25.13 8.4 47 52 -1 30.2 8.61 0.339
21:06 1022 30.18 851 25.13 8.3 46.9 54 -0.4 31.3 8.51 0.335
21:07 1022 30.18 851 25.13 7.8 46.1 53 -1.2 29.8 8.17 0.322
21:08 1022 30.18 851 25.13 7.9 46.2 52 -1.2 29.8 8.22 0.324
21:09 1022 30.18 851 25.13 7.9 46.1 51 -1.7 29 8.16 0.321
21:10 1022 30.18 851 25.13 8.2 46.7 50 -1.5 29.3 8.28 0.326
21:11 1022 30.18 851 25.13 8.4 47.1 49 -1.6 29 8.5 0.335
21:12 1022 30.18 851 25.13 8.4 47 50 -1.4 29.5 8.55 0.337
21:13 1022 30.18 851 25.13 8.5 47.4 47 -2.2 28 8.69 0.342
21:14 1022 30.18 851 25.13 8.8 47.9 48 -1.5 29.2 8.95 0.352
21:15 1021 30.15 851 25.13 9 48.3 47 -1.6 29.1 9.15 0.36
21:16 1021 30.15 851 25.13 9.1 48.3 47 -1.7 28.9 9.21 0.363
21:17 1021 30.15 851 25.13 9.1 48.3 44 -2.6 27.3 9.24 0.364
21:18 1021 30.15 851 25.13 9.3 48.8 45 -2.1 28.3 9.5 0.374
21:19 1021 30.15 851 25.13 9.6 49.3 43 -2.4 27.6 9.71 0.382
21:20 1021 30.15 851 25.13 9.7 49.4 42 -2.6 27.4 9.8 0.386
21:21 1021 30.15 851 25.13 9.9 49.7 43 -2 28.3 9.97 0.393
21:22 1021 30.15 851 25.13 9.7 49.4 45 -1.7 28.9 9.89 0.389
21:23 1021 30.15 851 25.13 9.3 48.7 47 -1.4 29.4 9.5 0.374
21:24 1021 30.15 851 25.13 8.7 47.7 47 -2 28.3 9.13 0.359
21:25 1021 30.15 851 25.13 8.6 47.5 47 -2.1 28.3 9.04 0.356
21:26 1022 30.18 851 25.13 8.7 47.6 46 -2.2 28 9.03 0.356
21:27 1022 30.18 851 25.13 8.8 47.8 47 -2 28.4 9.13 0.359
21:28 1022 30.18 851 25.13 8.9 48 43 -3 26.6 9.23 0.363
21:29 1022 30.18 851 25.13 9.3 48.8 44 -2.2 28 9.66 0.38
21:30 1022 30.18 851 25.13 9.4 48.9 43 -2.5 27.6 9.62 0.379
21:31 1022 30.18 851 25.13 9.4 49 43 -2.4 27.7 9.68 0.381
21:32 1022 30.18 851 25.13 9.4 48.8 45 -2 28.3 9.62 0.379
21:33 1022 30.18 851 25.13 9.4 48.9 42 -2.9 26.7 9.78 0.385
21:34 1022 30.18 851 25.13 9.8 49.6 43 -2.2 28.1 10.11 0.398
21:35 1022 30.18 851 25.13 9.6 49.3 43 -2.2 28 9.89 0.389
21:36 1022 30.18 851 25.13 9.4 49 45 -1.9 28.5 9.76 0.384
21:37 1022 30.18 851 25.13 9.2 48.6 45 -2 28.4 9.53 0.375
21:38 1022 30.18 851 25.13 8.9 48 45 -2.3 27.9 9.23 0.363
21:39 1022 30.18 851 25.13 8.7 47.7 46 -2.1 28.3 9.07 0.357
21:40 1022 30.18 851 25.13 8.5 47.4 47 -2 28.4 8.84 0.348
21:41 1022 30.18 851 25.13 8.3 46.9 49 -1.8 28.8 8.59 0.338
21:42 1022 30.18 851 25.13 8 46.4 49 -2.1 28.2 8.37 0.33
21:43 1022 30.18 851 25.13 8 46.3 49 -2.1 28.2 8.41 0.331
21:44 1022 30.18 851 25.13 8 46.3 48 -2.2 28 8.44 0.332
21:45 1022 30.18 851 25.13 8.1 46.6 47 -2.5 27.6 8.54 0.336
21:46 1022 30.18 851 25.13 8.4 47 46 -2.7 27.2 8.95 0.352
21:47 1022 30.18 851 25.13 8.7 47.6 47 -2.1 28.3 9.27 0.365
21:48 1022 30.18 851 25.13 8.5 47.2 47 -2.1 28.2 9.05 0.356
21:49 1022 30.18 851 25.13 8.4 47.2 46 -2.4 27.7 9.13 0.359
21:50 1022 30.18 851 25.13 8.7 47.7 45 -2.6 27.3 9.42 0.371
21:51 1022 30.18 851 25.13 9.1 48.4 44 -2.5 27.6 9.83 0.387
21:52 1022 30.18 851 25.13 9.4 48.9 43 -2.4 27.6 9.91 0.39
21:53 1022 30.18 851 25.13 9.6 49.2 42 -2.6 27.4 10.1 0.398
21:54 1022 30.18 851 25.13 9.8 49.6 43 -2.3 27.8 10.24 0.403
21:55 1022 30.18 851 25.13 9.7 49.5 44 -2.1 28.3 10.04 0.395
21:56 1022 30.18 851 25.13 9.2 48.5 45 -2.1 28.2 9.63 0.379
21:57 1022 30.18 851 25.13 8.8 47.9 45 -2.5 27.4 9.45 0.372
21:58 1022 30.18 851 25.13 9 48.1 44 -2.7 27.1 9.64 0.38
21:59 1022 30.18 851 25.13 9.1 48.4 40 -3.6 25.5 9.77 0.385
22:00 1022 30.18 851 25.13 9.5 49.1 40 -3.2 26.2 10.29 0.405
22:01 1022 30.18 851 25.13 9.6 49.3 42 -2.6 27.4 10.22 0.402
22:02 1022 30.18 851 25.13 9.4 48.9 42 -3 26.6 10.05 0.396
22:03 1022 30.18 851 25.13 9.4 49 44 -2.2 28 9.93 0.391
22:04 1022 30.18 851 25.13 9.1 48.4 46 -1.8 28.7 9.35 0.368
22:05 1022 30.18 851 25.13 8.6 47.5 47 -2 28.4 8.94 0.352
22:06 1022 30.18 851 25.13 8.2 46.8 46 -2.6 27.3 8.65 0.341
22:07 1021 30.15 851 25.13 8.3 46.9 46 -2.8 27 8.86 0.349
22:08 1022 30.18 851 25.13 8.5 47.3 45 -2.9 26.9 9.19 0.362
22:09 1022 30.18 851 25.13 8.8 47.9 44 -2.8 26.9 9.47 0.373
22:10 1021 30.15 851 25.13 9.1 48.4 43 -2.9 26.8 9.79 0.385
22:11 1021 30.15 851 25.13 9.5 49.1 43 -2.5 27.5 10.06 0.396
22:12 1021 30.15 851 25.13 9.4 49 45 -1.9 28.5 9.85 0.388
22:13 1021 30.15 851 25.13 9 48.2 46 -1.9 28.6 9.55 0.376
22:14 1021 30.15 851 25.13 8.6 47.4 46 -2.3 27.9 9.17 0.361
22:15 1021 30.15 851 25.13 8.4 47.2 47 -2.2 28.1 9.02 0.355
22:16 1021 30.15 851 25.13 8.4 47.1 48 -1.9 28.6 8.93 0.352
22:17 1021 30.15 851 25.13 8.1 46.6 50 -1.8 28.8 8.59 0.338
22:18 1021 30.15 851 25.13 7.6 45.8 51 -1.9 28.5 8.15 0.321
22:19 1021 30.15 851 25.13 7.7 45.8 47 -2.9 26.8 8.09 0.319
22:20 1021 30.15 851 25.13 8.1 46.6 43 -3.7 25.4 8.63 0.34
22:21 1021 30.15 851 25.13 8.7 47.7 42 -3.6 25.6 9.33 0.367
22:22 1021 30.15 851 25.13 9.3 48.7 41 -3.3 26.1 9.75 0.384
22:23 1021 30.15 851 25.13 9.6 49.2 41 -3 26.6 9.87 0.389
22:24 1021 30.15 851 25.13 9.6 49.3 41 -2.9 26.9 9.86 0.388
22:25 1021 30.15 851 25.13 9.4 49 41 -3.1 26.5 9.72 0.383
22:26 1021 30.15 851 25.13 9.5 49.1 40 -3.3 26 9.78 0.385
22:27 1021 30.15 851 25.13 9.8 49.6 41 -2.9 26.9 9.99 0.393
22:28 1021 30.15 851 25.13 9.7 49.5 40 -3.2 26.2 9.93 0.391
22:29 1021 30.15 851 25.13 9.6 49.3 39 -3.6 25.5 9.87 0.389
22:30 1021 30.15 851 25.13 9.8 49.7 38 -3.7 25.4 10.02 0.394
22:31 1021 30.15 851 25.13 10 50 38 -3.7 25.3 10.23 0.403
22:32 1021 30.15 851 25.13 10.2 50.4 39 -3 26.6 10.45 0.411
22:33 1021 30.15 851 25.13 9.9 49.9 37 -3.9 25 10.14 0.399
22:34 1021 30.15 851 25.13 9.9 49.9 39 -3.2 26.2 10.13 0.399
22:35 1021 30.15 851 25.13 9.8 49.6 37 -4.1 24.6 9.94 0.391
22:36 1021 30.15 851 25.13 10 50 39 -3.3 26.1 10.2 0.402
22:37 1021 30.15 851 25.13 10.2 50.3 35 -4.7 23.5 10.34 0.407
22:38 1021 30.15 851 25.13 10.6 51.1 33 -5 23 10.7 0.421
22:39 1021 30.15 851 25.13 11 51.8 39 -2.4 27.7 11.04 0.435
22:40 1021 30.15 851 25.13 10.7 51.2 37 -3.3 26.1 10.84 0.427
22:41 1021 30.15 851 25.13 10.3 50.6 37 -3.6 25.4 10.53 0.415
22:42 1021 30.15 851 25.13 10.5 50.8 34 -4.6 23.7 10.59 0.417
22:43 1021 30.15 851 25.13 10.9 51.7 33 -4.9 23.2 10.92 0.43
22:44 1021 30.15 851 25.13 11.3 52.3 32 -4.8 23.4 11.26 0.443
22:45 1021 30.15 851 25.13 11.6 53 29 -5.6 21.8 11.74 0.462
22:46 1021 30.15 851 25.13 12.1 53.7 31 -4.4 24.1 12.34 0.486
22:47 1021 30.15 851 25.13 11.8 53.3 34 -3.5 25.7 12.1 0.476
22:48 1021 30.15 851 25.13 10.8 51.4 36 -3.6 25.5 11.06 0.435
22:49 1021 30.15 851 25.13 10.3 50.5 40 -2.8 26.9 10.54 0.415
22:50 1021 30.15 851 25.13 10.1 50.1 36 -4.2 24.4 10.31 0.406
22:51 1021 30.15 851 25.13 10.3 50.6 36 -4.3 24.3 10.4 0.409
22:52 1021 30.15 851 25.13 10.5 51 38 -3.3 26.1 10.56 0.416
22:53 1021 30.15 851 25.13 10.1 50.2 40 -3 26.6 10.34 0.407
22:54 1021 30.15 851 25.13 9.5 49 42 -2.6 27.2 9.92 0.391
22:55 1021 30.15 851 25.13 8.9 47.9 42 -3.4 25.9 9.45 0.372
22:56 1021 30.15 851 25.13 8.6 47.4 45 -2.6 27.3 9.18 0.361
22:57 1021 30.15 851 25.13 8.4 47.1 43 -3.4 26 8.91 0.351
22:58 1021 30.15 851 25.13 8.4 47.1 46 -2.4 27.6 8.84 0.348
22:59 1021 30.15 851 25.13 8.1 46.5 45 -3.3 26.1 8.54 0.336
23:00 1021 30.15 851 25.13 8.2 46.8 43 -3.5 25.8 8.66 0.341
23:01 1021 30.15 851 25.13 8.7 47.6 40 -4.3 24.2 9.02 0.355
23:02 1021 30.15 851 25.13 9.5 49.2 36 -4.9 23.3 9.82 0.387
23:03 1021 30.15 851 25.13 10.4 50.7 33 -5.2 22.6 10.68 0.42
23:04 1021 30.15 851 25.13 11.2 52.1 31 -5.2 22.6 11.47 0.452
23:05 1021 30.15 851 25.13 11.6 52.9 33 -3.9 24.9 11.92 0.469
23:06 1021 30.15 851 25.13 11.2 52.2 37 -3 26.7 11.7 0.461
23:07 1021 30.15 851 25.13 10.8 51.4 35 -4 24.9 11.28 0.444
23:08 1021 30.15 851 25.13 10.7 51.3 33 -4.8 23.4 11.23 0.442
23:09 1021 30.15 851 25.13 10.7 51.2 38 -2.9 26.8 11.24 0.443
23:10 1021 30.15 851 25.13 9.9 49.8 40 -3.1 26.4 10.6 0.417
23:11 1021 30.15 851 25.13 9.4 48.9 41 -3.1 26.3 9.91 0.39
23:12 1021 30.15 851 25.13 9 48.2 43 -3 26.6 9.42 0.371
23:13 1021 30.15 851 25.13 8.6 47.5 44 -3 26.7 8.97 0.353
23:14 1021 30.15 851 25.13 8.4 47.1 44 -3.1 26.3 8.71 0.343
23:15 1021 30.15 851 25.13 8.5 47.3 40 -4.4 24.1 8.8 0.346
23:16 1021 30.15 851 25.13 8.8 47.9 42 -3.5 25.7 9.04 0.356
23:17 1021 30.15 851 25.13 8.8 47.9 38 -4.6 23.7 9.08 0.357
23:18 1021 30.15 851 25.13 9 48.3 39 -4.1 24.5 9.24 0.364
23:19 1021 30.15 851 25.13 8.9 48 45 -2.5 27.5 8.93 0.352
23:20 1021 30.15 851 25.13 8 46.4 47 -2.7 27.1 8.26 0.325
23:21 1021 30.15 851 25.13 7.6 45.6 48 -2.8 26.9 7.91 0.311
23:22 1021 30.15 851 25.13 7.4 45.3 48 -2.8 27 7.7 0.303
23:23 1021 30.15 851 25.13 7.1 44.9 49 -2.8 26.9 7.42 0.292
23:24 1021 30.15 851 25.13 7.1 44.7 47 -3.6 25.6 7.25 0.285
23:25 1021 30.15 851 25.13 7.3 45.2 46 -3.5 25.7 7.46 0.294
23:26 1021 30.15 851 25.13 7.6 45.7 42 -4.5 24 7.71 0.304
23:27 1021 30.15 851 25.13 8.2 46.8 45 -2.9 26.7 8.21 0.323
23:28 1021 30.15 851 25.13 8.1 46.5 46 -2.9 26.8 8.05 0.317
23:29 1021 30.15 851 25.13 7.5 45.6 49 -2.5 27.5 7.76 0.306
23:30 1021 30.15 851 25.13 7 44.7 49 -2.9 26.7 7.36 0.29
23:31 1021 30.15 851 25.13 6.8 44.2 52 -2.3 27.9 7.01 0.276
23:32 1021 30.15 851 25.13 6.2 43.1 55 -2.1 28.2 6.517 0.257
23:33 1021 30.15 851 25.13 5.6 42 57 -2.2 28 5.969 0.235
23:34 1021 30.15 851 25.13 5.1 41.2 57 -2.6 27.3 5.533 0.218
23:35 1021 30.15 851 25.13 5.4 41.7 54 -3.1 26.4 5.562 0.219
23:36 1021 30.15 851 25.13 5.8 42.4 54 -2.8 26.9 5.867 0.231
23:37 1021 30.15 851 25.13 5.8 42.4 54 -2.7 27.2 5.805 0.229
23:38 1021 30.15 851 25.13 5.6 42.1 54 -2.9 26.7 5.721 0.225
23:39 1021 30.15 851 25.13 5.6 42 56 -2.6 27.3 5.687 0.224
23:40 1021 30.15 851 25.13 5.4 41.8 55 -2.9 26.8 5.642 0.222
23:41 1021 30.15 851 25.13 5.6 42 53 -3.2 26.2 5.846 0.23
23:42 1021 30.15 851 25.13 5.9 42.6 50 -3.7 25.3 6.129 0.241
23:43 1021 30.15 851 25.13 6.5 43.8 47 -4 24.8 6.723 0.265
23:44 1022 30.18 851 25.13 7.3 45.2 44 -4.2 24.4 7.37 0.29
23:45 1022 30.18 851 25.13 7.9 46.2 44 -3.7 25.3 7.82 0.308
23:46 1022 30.18 851 25.13 7.8 46 47 -2.7 27.1 7.74 0.305
23:47 1022 30.18 851 25.13 7 44.5 51 -2.6 27.4 6.983 0.275
23:48 1021 30.15 851 25.13 6.3 43.4 51 -3 26.7 6.508 0.256
23:49 1021 30.15 851 25.13 6.3 43.3 50 -3.4 26 6.474 0.255
23:50 1021 30.15 851 25.13 6.5 43.6 49 -3.5 25.8 6.616 0.26
23:51 1021 30.15 851 25.13 6.8 44.2 48 -3.4 26 6.91 0.272
23:52 1021 30.15 851 25.13 6.8 44.2 50 -2.8 26.9 6.905 0.272
23:53 1021 30.15 851 25.13 6.2 43.2 53 -2.6 27.3 6.384 0.251
23:54 1022 30.18 851 25.13 5.8 42.4 54 -2.7 27.1 5.994 0.236
23:55 1022 30.18 851 25.13 5.5 41.8 55 -2.7 27.1 5.751 0.226
23:56 1021 30.15 851 25.13 5.2 41.4 57 -2.7 27.2 5.524 0.217
23:57 1021 30.15 851 25.13 5 41.1 57 -2.7 27.1 5.304 0.209
23:58 1021 30.15 851 25.13 4.8 40.6 59 -2.6 27.3 5.083 0.2
23:59 1021 30.15 851 25.13 4.5 40.1 61 -2.5 27.6 4.817 0.19
24:00 1021 30.15 851 25.13 4.2 39.5 62 -2.4 27.7 4.506 0.177